Live≪ 8ème Combiné Duathlon Triathlon de Ardres 2016 ≫

Le 25/09/2016 Attention événement 2015 !!! Calendrier 2017



Suivez en direct le live de "8ème Combiné Duathlon Triathlon de Ardres 2016", Sun 25 September 2016

tri

Cross-Duathlon BE/MICross-Duathlon Mini-PoussinsCross-Duathlon PO/PUDuathlon MTriathlon MTriathlon M Relais

Cross-Duathlon BE/MI
Scratch Nom Prénom Club Temps Cat. Clt. Cat. Nat. #1 Vélo #2 CaP ... Course
0001 1217 SAINT OMER Virgile COTE D OPALE TRIATHLON CALAIS SAINT OMER 00:17:56 MI M 1 00:00:00 00:00:00 00:00:00 00:00:00 00:00:00 Cross-Duathlon BE/MI
0002 1216 THOMAS Louis COTE D OPALE TRIATHLON CALAIS SAINT OMER 00:18:00 MI M 2 00:00:00 00:00:00 00:00:00 00:00:00 00:00:00 Cross-Duathlon BE/MI
0003 1222 JACQUERIE Adrien GRAVELINES TRIATHLON 00:18:06 MI M 3 00:00:00 00:00:00 00:00:00 00:00:00 00:00:00 Cross-Duathlon BE/MI
0004 1232 CARPENTIER Kilian MCT/LA TERRE DES 2 CAPS 00:18:21 MI M 4 00:00:00 00:00:00 00:00:00 00:00:00 00:00:00 Cross-Duathlon BE/MI
0005 1229 BERDIN Leo LYS CALAIS TRIATHLON 00:18:41 MI M 5 00:00:00 00:00:00 00:00:00 00:00:00 00:00:00 Cross-Duathlon BE/MI
0006 1219 GILLODTS Thomas GRAVELINES TRIATHLON 00:18:46 MI M 6 00:00:00 00:00:00 00:00:00 00:00:00 00:00:00 Cross-Duathlon BE/MI
0007 1248 DELVART Théo 00:19:08 MI M 7 00:00:00 00:00:00 00:00:00 00:00:00 00:00:00 Cross-Duathlon BE/MI
0008 1230 HERBEZ Timothe LYS CALAIS TRIATHLON 00:19:08 MI M 8 00:00:00 00:00:00 00:00:00 00:00:00 00:00:00 Cross-Duathlon BE/MI
0009 1214 LOISON Louis BLANC NEZ TRIATHLON 62 00:19:28 MI M 9 00:00:00 00:00:00 00:00:00 00:00:00 00:00:00 Cross-Duathlon BE/MI
0010 1231 CARPENTIER Yanis MCT/LA TERRE DES 2 CAPS 00:19:43 BE M 1 00:00:00 00:00:00 00:00:00 00:00:00 00:00:00 Cross-Duathlon BE/MI
0011 1226 MARLARD Antoine LYS CALAIS TRIATHLON 00:19:56 MI M 10 00:00:00 00:00:00 00:00:00 00:00:00 00:00:00 Cross-Duathlon BE/MI
0012 1236 DUSART Leo TRIATHLON LITTORAL 59 00:20:08 BE M 2 00:00:00 00:00:00 00:00:00 00:00:00 00:00:00 Cross-Duathlon BE/MI
0013 1241 LYOEN Guillaume 00:20:12 MI M 11 00:00:00 00:00:00 00:00:00 00:00:00 00:00:00 Cross-Duathlon BE/MI
0014 1227 COCQUET Nathan LYS CALAIS TRIATHLON 00:20:16 MI M 12 00:00:00 00:00:00 00:00:00 00:00:00 00:00:00 Cross-Duathlon BE/MI
0015 1228 POUTRAIN Elouan LYS CALAIS TRIATHLON 00:20:33 BE M 3 00:00:00 00:00:00 00:00:00 00:00:00 00:00:00 Cross-Duathlon BE/MI
0016 1218 HORENT Matheis COTE D OPALE TRIATHLON CALAIS SAINT OMER 00:20:34 BE M 4 00:00:00 00:00:00 00:00:00 00:00:00 00:00:00 Cross-Duathlon BE/MI
0017 1223 MARIETTE Thomas GRAVELINES TRIATHLON 00:20:38 MI M 13 00:00:00 00:00:00 00:00:00 00:00:00 00:00:00 Cross-Duathlon BE/MI
0018 1260 MATTE Nicolas 00:20:42 MI M 14 00:00:00 00:00:00 00:00:00 00:00:00 00:00:00 Cross-Duathlon BE/MI
0019 1182 COUPIN Estelle BLANC NEZ TRIATHLON 62 00:20:42 MI F 1 00:00:00 00:00:00 00:00:00 00:00:00 00:00:00 Cross-Duathlon BE/MI
0020 1194 NIELLEN Flora LYS CALAIS TRIATHLON 00:20:44 MI F 2 00:00:00 00:00:00 00:00:00 00:00:00 00:00:00 Cross-Duathlon BE/MI
0021 1199 RICHARD Lea TRIATHLON CLUB DE LIEVIN 00:20:51 MI F 3 00:00:00 00:00:00 00:00:00 00:00:00 00:00:00 Cross-Duathlon BE/MI
0022 1249 FASQUEL Florian 00:21:00 MI M 15 00:00:00 00:00:00 00:00:00 00:00:00 00:00:00 Cross-Duathlon BE/MI
0023 1187 LUCAS Raphaelle LYS CALAIS TRIATHLON 00:21:12 BE F 1 00:00:00 00:00:00 00:00:00 00:00:00 00:00:00 Cross-Duathlon BE/MI
0024 1192 NEVEU Aurelie LYS CALAIS TRIATHLON 00:21:25 MI F 4 00:00:00 00:00:00 00:00:00 00:00:00 00:00:00 Cross-Duathlon BE/MI
0025 1190 BARTHELEMY Jade LYS CALAIS TRIATHLON 00:21:28 BE F 2 00:00:00 00:00:00 00:00:00 00:00:00 00:00:00 Cross-Duathlon BE/MI
0026 1265 DIERS Léna 00:21:50 MI F 5 00:00:00 00:00:00 00:00:00 00:00:00 00:00:00 Cross-Duathlon BE/MI
0027 1233 VIERTAIX Antoine MCT/LA TERRE DES 2 CAPS 00:21:56 BE M 5 00:00:00 00:00:00 00:00:00 00:00:00 00:00:00 Cross-Duathlon BE/MI
0028 1189 MASSON Gabrielle LYS CALAIS TRIATHLON 00:22:13 BE F 3 00:00:00 00:00:00 00:00:00 00:00:00 00:00:00 Cross-Duathlon BE/MI
0029 1186 DEVIN Noemie GRAVELINES TRIATHLON 00:22:14 MI F 6 00:00:00 00:00:00 00:00:00 00:00:00 00:00:00 Cross-Duathlon BE/MI
0030 1247 LORGNIER Cyprien 00:22:21 BE M 6 00:00:00 00:00:00 00:00:00 00:00:00 00:00:00 Cross-Duathlon BE/MI
0031 1198 MAIN Flavie TRIATHLON CLUB DE LIEVIN 00:22:26 BE F 4 00:00:00 00:00:00 00:00:00 00:00:00 00:00:00 Cross-Duathlon BE/MI
0032 1193 AIGOUY Jade LYS CALAIS TRIATHLON 00:22:27 BE F 5 00:00:00 00:00:00 00:00:00 00:00:00 00:00:00 Cross-Duathlon BE/MI
0033 1242 DECROCK Matheo 00:22:28 MI M 16 00:00:00 00:00:00 00:00:00 00:00:00 00:00:00 Cross-Duathlon BE/MI
0034 1261 WASSELIN Tom 00:22:31 MI M 17 00:00:00 00:00:00 00:00:00 00:00:00 00:00:00 Cross-Duathlon BE/MI
0035 1254 LANTOINE Alexandre 00:22:40 MI M 18 00:00:00 00:00:00 00:00:00 00:00:00 00:00:00 Cross-Duathlon BE/MI
0036 1220 HENQUEZ Antoine GRAVELINES TRIATHLON 00:22:44 MI M 19 00:00:00 00:00:00 00:00:00 00:00:00 00:00:00 Cross-Duathlon BE/MI
0037 1256 VANHAECKE Stanislas 00:22:45 MI M 20 00:00:00 00:00:00 00:00:00 00:00:00 00:00:00 Cross-Duathlon BE/MI
0038 1225 DAOUDAL Arthur GRAVELINES TRIATHLON 00:22:45 BE M 7 00:00:00 00:00:00 00:00:00 00:00:00 00:00:00 Cross-Duathlon BE/MI
0039 1185 HENEMAN Zoe GRAVELINES TRIATHLON 00:22:48 MI F 7 00:00:00 00:00:00 00:00:00 00:00:00 00:00:00 Cross-Duathlon BE/MI
0040 1273 LELEU Simon 00:22:55 BE M 8 00:00:00 00:00:00 00:00:00 00:00:00 00:00:00 Cross-Duathlon BE/MI
0041 1268 BOURDON Rémy 00:22:58 MI M 21 00:00:00 00:00:00 00:00:00 00:00:00 00:00:00 Cross-Duathlon BE/MI
0042 1250 LECRAS Emile 00:23:02 MI M 22 00:00:00 00:00:00 00:00:00 00:00:00 00:00:00 Cross-Duathlon BE/MI
0043 1184 JACQUERIE Elise GRAVELINES TRIATHLON 00:23:32 BE F 6 00:00:00 00:00:00 00:00:00 00:00:00 00:00:00 Cross-Duathlon BE/MI
0044 1234 FONTAINE Maxime MCT/LA TERRE DES 2 CAPS 00:23:38 BE M 9 00:00:00 00:00:00 00:00:00 00:00:00 00:00:00 Cross-Duathlon BE/MI
0045 1215 BARON Lucas BLANC NEZ TRIATHLON 62 00:23:38 BE M 10 00:00:00 00:00:00 00:00:00 00:00:00 00:00:00 Cross-Duathlon BE/MI
0046 1206 LEMAITRE Pauline 00:23:41 BE F 7 00:00:00 00:00:00 00:00:00 00:00:00 00:00:00 Cross-Duathlon BE/MI
0047 1258 DEMILLY Léopol 00:23:46 BE M 11 00:00:00 00:00:00 00:00:00 00:00:00 00:00:00 Cross-Duathlon BE/MI
0048 1235 VISTOT Leo paul TRIATHLON LITTORAL 59 00:23:58 BE M 12 00:00:00 00:00:00 00:00:00 00:00:00 00:00:00 Cross-Duathlon BE/MI
0049 1259 MERLOT Lucas 00:24:02 BE M 13 00:00:00 00:00:00 00:00:00 00:00:00 00:00:00 Cross-Duathlon BE/MI
0050 1181 COMYN Margaux BLANC NEZ TRIATHLON 62 00:24:06 BE F 8 00:00:00 00:00:00 00:00:00 00:00:00 00:00:00 Cross-Duathlon BE/MI
0051 1251 LECRAS Augustin 00:24:08 BE M 14 00:00:00 00:00:00 00:00:00 00:00:00 00:00:00 Cross-Duathlon BE/MI
0052 1204 MEURET Louna 00:24:19 BE F 9 00:00:00 00:00:00 00:00:00 00:00:00 00:00:00 Cross-Duathlon BE/MI
0053 1239 GOLLIOT Charles 00:24:23 BE M 15 00:00:00 00:00:00 00:00:00 00:00:00 00:00:00 Cross-Duathlon BE/MI
0054 1240 ORDYNSKI Goran 00:24:25 BE M 16 00:00:00 00:00:00 00:00:00 00:00:00 00:00:00 Cross-Duathlon BE/MI
0055 1252 MELIN Carl 00:24:29 BE M 17 00:00:00 00:00:00 00:00:00 00:00:00 00:00:00 Cross-Duathlon BE/MI
0056 1276 BERTHE Louison 00:24:31 BE M 18 00:00:00 00:00:00 00:00:00 00:00:00 00:00:00 Cross-Duathlon BE/MI
0057 1196 DUBURQUOY Sacha LYS CALAIS TRIATHLON 00:25:04 BE M 19 00:00:00 00:00:00 00:00:00 00:00:00 00:00:00 Cross-Duathlon BE/MI
0058 1257 BREBION Jules 00:25:13 BE M 20 00:00:00 00:00:00 00:00:00 00:00:00 00:00:00 Cross-Duathlon BE/MI
0059 1221 DAMBRICOURT Simon GRAVELINES TRIATHLON 00:25:23 BE M 21 00:00:00 00:00:00 00:00:00 00:00:00 00:00:00 Cross-Duathlon BE/MI
0060 1253 DESOMBRE Arthur 00:25:28 BE M 22 00:00:00 00:00:00 00:00:00 00:00:00 00:00:00 Cross-Duathlon BE/MI
0061 1195 PILLE YARD Zia LYS CALAIS TRIATHLON 00:25:29 BE F 10 00:00:00 00:00:00 00:00:00 00:00:00 00:00:00 Cross-Duathlon BE/MI
0062 1212 DEMILLY Adèle 00:25:41 BE F 11 00:00:00 00:00:00 00:00:00 00:00:00 00:00:00 Cross-Duathlon BE/MI
0063 1238 GOMEZ Alexis 00:25:58 BE M 23 00:00:00 00:00:00 00:00:00 00:00:00 00:00:00 Cross-Duathlon BE/MI
0064 1246 JELONEK Hubert 00:26:04 MI M 23 00:00:00 00:00:00 00:00:00 00:00:00 00:00:00 Cross-Duathlon BE/MI
0065 1205 NION Ophélie 00:26:06 BE F 12 00:00:00 00:00:00 00:00:00 00:00:00 00:00:00 Cross-Duathlon BE/MI
0066 1243 METSKOWITZ Noah 00:26:14 BE M 24 00:00:00 00:00:00 00:00:00 00:00:00 00:00:00 Cross-Duathlon BE/MI
0067 1255 DE CONCEICAO Hippolyte 00:26:31 BE M 25 00:00:00 00:00:00 00:00:00 00:00:00 00:00:00 Cross-Duathlon BE/MI
0068 1263 HOUSSIN Victor 00:27:04 BE M 26 00:00:00 00:00:00 00:00:00 00:00:00 00:00:00 Cross-Duathlon BE/MI
0069 1279 PATEY BERTIN Capucine 00:27:37 BE F 13 00:00:00 00:00:00 00:00:00 00:00:00 00:00:00 Cross-Duathlon BE/MI
0070 1203 TROUILLE Annah 00:27:42 BE F 14 00:00:00 00:00:00 00:00:00 00:00:00 00:00:00 Cross-Duathlon BE/MI
0071 1267 DEROO Blanche 00:28:05 BE F 15 00:00:00 00:00:00 00:00:00 00:00:00 00:00:00 Cross-Duathlon BE/MI
0072 1207 RENAUT Emma 00:28:07 BE F 16 00:00:00 00:00:00 00:00:00 00:00:00 00:00:00 Cross-Duathlon BE/MI
0073 1211 LUTUN Juliette 00:28:41 MI F 8 00:00:00 00:00:00 00:00:00 00:00:00 00:00:00 Cross-Duathlon BE/MI
0074 1272 BERNARD Louis 00:30:04 BE M 27 00:00:00 00:00:00 00:00:00 00:00:00 00:00:00 Cross-Duathlon BE/MI
0075 1245 MALESYS Joseph 00:30:21 BE M 28 00:00:00 00:00:00 00:00:00 00:00:00 00:00:00 Cross-Duathlon BE/MI
0076 1210 DUQUENOY Laurine 00:31:12 BE F 17 00:00:00 00:00:00 00:00:00 00:00:00 00:00:00 Cross-Duathlon BE/MI
0077 1213 BIZARD Mathilde 00:35:09 BE F 18 00:00:00 00:00:00 00:00:00 00:00:00 00:00:00 Cross-Duathlon BE/MI
0078 1208 GAGNE Anaïs 00:39:43 BE F 19 00:00:00 00:00:00 00:00:00 00:00:00 00:00:00 Cross-Duathlon BE/MI
DNF 1224 CHACHOUA Rayan GRAVELINES TRIATHLON 00:00:00 MI M 0 00:00:00 00:00:00 00:00:00 00:00:00 00:00:00 Cross-Duathlon BE/MI
DNS 1183 QUEVAL Lola BLANC NEZ TRIATHLON 62 00:00:00 BE F 0 00:00:00 00:00:00 00:00:00 00:00:00 00:00:00 Cross-Duathlon BE/MI
DNS 1188 ELLART Jade LYS CALAIS TRIATHLON 00:00:00 MI F 0 00:00:00 00:00:00 00:00:00 00:00:00 00:00:00 Cross-Duathlon BE/MI
DNS 1197 SAPET Satine RACING CLUB ARRAS TRIATHLON 00:00:00 BE F 0 00:00:00 00:00:00 00:00:00 00:00:00 00:00:00 Cross-Duathlon BE/MI
DNS 1200 WAELES Juliette TRIATHLON LITTORAL 59 00:00:00 BE F 0 00:00:00 00:00:00 00:00:00 00:00:00 00:00:00 Cross-Duathlon BE/MI
DNS 1201 TEMMERMAN Coline 00:00:00 MI F 0 00:00:00 00:00:00 00:00:00 00:00:00 00:00:00 Cross-Duathlon BE/MI
DNS 1202 TEMMERMAN Clémentine 00:00:00 BE F 0 00:00:00 00:00:00 00:00:00 00:00:00 00:00:00 Cross-Duathlon BE/MI
DNS 1209 DUQUENOY Laurine 00:00:00 BE F 0 00:00:00 00:00:00 00:00:00 00:00:00 00:00:00 Cross-Duathlon BE/MI
DNS 1237 TURPIN Clement VALENCIENNES TRIATHLON 00:00:00 MI M 0 00:00:00 00:00:00 00:00:00 00:00:00 00:00:00 Cross-Duathlon BE/MI
DNS 1244 TETTART Axel 00:00:00 MI M 0 00:00:00 00:00:00 00:00:00 00:00:00 00:00:00 Cross-Duathlon BE/MI


Cross-Duathlon Mini-Poussins
Scratch Nom Prénom Club Temps Cat. Clt. Cat. Nat. #1 Vélo #2 CaP ... Course
0001 1027 DESTREZ--COILLIOT Gabriel 00:10:35 MPO M 1 00:00:00 00:00:00 00:00:00 00:00:00 00:00:00 Cross-Duathlon Mini-Poussins
0002 1030 MARTIN Tom 00:10:45 MPO M 2 00:00:00 00:00:00 00:00:00 00:00:00 00:00:00 Cross-Duathlon Mini-Poussins
0003 1011 MAILLET Noe GRAVELINES TRIATHLON 00:10:51 MPO M 3 00:00:00 00:00:00 00:00:00 00:00:00 00:00:00 Cross-Duathlon Mini-Poussins
0004 1010 DEQUIDT Sacha COTE D OPALE TRIATHLON CALAIS SAINT OMER 00:10:56 MPO M 4 00:00:00 00:00:00 00:00:00 00:00:00 00:00:00 Cross-Duathlon Mini-Poussins
0005 1023 VIVIEZ Honorine 00:11:27 MPO F 1 00:00:00 00:00:00 00:00:00 00:00:00 00:00:00 Cross-Duathlon Mini-Poussins
0006 1020 CARPENTIER Sasha 00:11:57 MPO M 5 00:00:00 00:00:00 00:00:00 00:00:00 00:00:00 Cross-Duathlon Mini-Poussins
0007 1001 JACQUERIE Marion GRAVELINES TRIATHLON 00:11:58 MPO F 2 00:00:00 00:00:00 00:00:00 00:00:00 00:00:00 Cross-Duathlon Mini-Poussins
0008 1286 ANOT Robin 00:12:01 MPO M 6 00:00:00 00:00:00 00:00:00 00:00:00 00:00:00 Cross-Duathlon Mini-Poussins
0009 1024 RIGOULET Antoine 00:12:02 MPO M 7 00:00:00 00:00:00 00:00:00 00:00:00 00:00:00 Cross-Duathlon Mini-Poussins
0010 1028 FUMEY Tom 00:12:10 MPO M 8 00:00:00 00:00:00 00:00:00 00:00:00 00:00:00 Cross-Duathlon Mini-Poussins
0011 1026 BREBION Ylan 00:12:17 MPO M 9 00:00:00 00:00:00 00:00:00 00:00:00 00:00:00 Cross-Duathlon Mini-Poussins
0012 1003 DEBOVE Estelle 00:12:23 MPO F 3 00:00:00 00:00:00 00:00:00 00:00:00 00:00:00 Cross-Duathlon Mini-Poussins
0013 1016 MAILLET Victor 00:12:31 MPO M 10 00:00:00 00:00:00 00:00:00 00:00:00 00:00:00 Cross-Duathlon Mini-Poussins
0014 1005 CAMBOULIVES Zélie 00:12:33 MPO F 4 00:00:00 00:00:00 00:00:00 00:00:00 00:00:00 Cross-Duathlon Mini-Poussins
0015 1017 GAMBART Thomas 00:12:35 MPO M 11 00:00:00 00:00:00 00:00:00 00:00:00 00:00:00 Cross-Duathlon Mini-Poussins
0016 1019 TRONET Elliott 00:12:41 MPO M 12 00:00:00 00:00:00 00:00:00 00:00:00 00:00:00 Cross-Duathlon Mini-Poussins
0017 1025 MARTIN Léandre 00:12:51 MPO M 13 00:00:00 00:00:00 00:00:00 00:00:00 00:00:00 Cross-Duathlon Mini-Poussins
0018 1018 ANDRIEUX Charly 00:13:08 MPO M 14 00:00:00 00:00:00 00:00:00 00:00:00 00:00:00 Cross-Duathlon Mini-Poussins
0019 1274 VIDAL Victor 00:13:09 MPO M 15 00:00:00 00:00:00 00:00:00 00:00:00 00:00:00 Cross-Duathlon Mini-Poussins
0020 1275 DEVOS Victoire 00:13:45 MPO F 5 00:00:00 00:00:00 00:00:00 00:00:00 00:00:00 Cross-Duathlon Mini-Poussins
0021 1014 GUMUS Simon 00:14:01 MPO M 16 00:00:00 00:00:00 00:00:00 00:00:00 00:00:00 Cross-Duathlon Mini-Poussins
0022 1285 LEFRANCOIS Dorian 00:14:07 MPO M 17 00:00:00 00:00:00 00:00:00 00:00:00 00:00:00 Cross-Duathlon Mini-Poussins
0023 1004 PLATIAU Camille 00:14:08 MPO F 6 00:00:00 00:00:00 00:00:00 00:00:00 00:00:00 Cross-Duathlon Mini-Poussins
0024 1009 LEULIET Anna 00:14:18 MPO F 7 00:00:00 00:00:00 00:00:00 00:00:00 00:00:00 Cross-Duathlon Mini-Poussins
0025 1002 GUERLUS Clemence GRAVELINES TRIATHLON 00:14:39 MPO F 8 00:00:00 00:00:00 00:00:00 00:00:00 00:00:00 Cross-Duathlon Mini-Poussins
0026 1015 MELCHIOR Gaby 00:15:15 MPO M 18 00:00:00 00:00:00 00:00:00 00:00:00 00:00:00 Cross-Duathlon Mini-Poussins
0027 1007 CARBONNIER Zelie 00:15:17 MPO F 9 00:00:00 00:00:00 00:00:00 00:00:00 00:00:00 Cross-Duathlon Mini-Poussins
0028 1013 ANDRIEUX Ruben 00:15:20 MPO M 19 00:00:00 00:00:00 00:00:00 00:00:00 00:00:00 Cross-Duathlon Mini-Poussins
0029 1287 LEFEBVRE Tom 00:15:51 MPO M 20 00:00:00 00:00:00 00:00:00 00:00:00 00:00:00 Cross-Duathlon Mini-Poussins
0030 1021 CAILLIAU Henri 00:15:51 MPO M 21 00:00:00 00:00:00 00:00:00 00:00:00 00:00:00 Cross-Duathlon Mini-Poussins
0031 1008 DUBUIS Lucie 00:17:11 MPO F 10 00:00:00 00:00:00 00:00:00 00:00:00 00:00:00 Cross-Duathlon Mini-Poussins
0032 1288 LEFEBVRE Lucas 00:18:57 MPO M 22 00:00:00 00:00:00 00:00:00 00:00:00 00:00:00 Cross-Duathlon Mini-Poussins
0033 1006 SAUVAGE Faustine 00:19:36 MPO F 11 00:00:00 00:00:00 00:00:00 00:00:00 00:00:00 Cross-Duathlon Mini-Poussins
DNS 1012 MAILLET Noe GRAVELINES TRIATHLON 00:00:00 MPO M 0 00:00:00 00:00:00 00:00:00 00:00:00 00:00:00 Cross-Duathlon Mini-Poussins
DNS 1022 PATRON Clément 00:00:00 MPO M 0 00:00:00 00:00:00 00:00:00 00:00:00 00:00:00 Cross-Duathlon Mini-Poussins
DNS 1029 DEZÈGUE Enzo 00:00:00 MPO M 0 00:00:00 00:00:00 00:00:00 00:00:00 00:00:00 Cross-Duathlon Mini-Poussins


Cross-Duathlon PO/PU
Scratch Nom Prénom Club Temps Cat. Clt. Cat. Nat. #1 Vélo #2 CaP ... Course
0001 1133 RICHARD Noe TRIATHLON CLUB DE LIEVIN 00:09:19 PU M 1 00:00:00 00:00:00 00:00:00 00:00:00 00:00:00 Cross-Duathlon PO/PU
0002 1132 MAIN Dorian TRIATHLON CLUB DE LIEVIN 00:09:47 PU M 2 00:00:00 00:00:00 00:00:00 00:00:00 00:00:00 Cross-Duathlon PO/PU
0003 1135 VISTOT Balthazar TRIATHLON LITTORAL 59 00:09:55 PU M 3 00:00:00 00:00:00 00:00:00 00:00:00 00:00:00 Cross-Duathlon PO/PU
0004 1134 SCHABAILLE Matteo TRIATHLON LITTORAL 59 00:10:05 PU M 4 00:00:00 00:00:00 00:00:00 00:00:00 00:00:00 Cross-Duathlon PO/PU
0005 1071 BRUNEEL Audrey LYS CALAIS TRIATHLON 00:10:07 PU F 1 00:00:00 00:00:00 00:00:00 00:00:00 00:00:00 Cross-Duathlon PO/PU
0006 1075 LEROUX Lena LYS CALAIS TRIATHLON 00:10:12 PU F 2 00:00:00 00:00:00 00:00:00 00:00:00 00:00:00 Cross-Duathlon PO/PU
0007 1140 DELEPIERRE Noé 00:10:14 PU M 5 00:00:00 00:00:00 00:00:00 00:00:00 00:00:00 Cross-Duathlon PO/PU
0008 1104 LOISON Jules BLANC NEZ TRIATHLON 62 00:10:15 PU M 6 00:00:00 00:00:00 00:00:00 00:00:00 00:00:00 Cross-Duathlon PO/PU
0009 1120 BEAURAIN Arthur GRAVELINES TRIATHLON 00:10:24 PU M 7 00:00:00 00:00:00 00:00:00 00:00:00 00:00:00 Cross-Duathlon PO/PU
0010 1106 QUEVAL Eliot BLANC NEZ TRIATHLON 62 00:10:25 PO M 1 00:00:00 00:00:00 00:00:00 00:00:00 00:00:00 Cross-Duathlon PO/PU
0011 1125 MARIETTE Victor GRAVELINES TRIATHLON 00:10:25 PO M 2 00:00:00 00:00:00 00:00:00 00:00:00 00:00:00 Cross-Duathlon PO/PU
0012 1129 NIELLEN Thomas LYS CALAIS TRIATHLON 00:10:33 PU M 8 00:00:00 00:00:00 00:00:00 00:00:00 00:00:00 Cross-Duathlon PO/PU
0013 1077 FORIENT Roxanne MCT/LA TERRE DES 2 CAPS 00:10:37 PO F 1 00:00:00 00:00:00 00:00:00 00:00:00 00:00:00 Cross-Duathlon PO/PU
0014 1174 MEURET Léo-paul 00:10:44 PU M 9 00:00:00 00:00:00 00:00:00 00:00:00 00:00:00 Cross-Duathlon PO/PU
0015 1110 DACQUIN Leo COTE D OPALE TRIATHLON CALAIS SAINT OMER 00:10:48 PU M 10 00:00:00 00:00:00 00:00:00 00:00:00 00:00:00 Cross-Duathlon PO/PU
0016 1117 DAMBRICOURT Mathis GRAVELINES TRIATHLON 00:10:48 PO M 3 00:00:00 00:00:00 00:00:00 00:00:00 00:00:00 Cross-Duathlon PO/PU
0017 1266 CARPENTIER Henri 00:10:53 PU M 11 00:00:00 00:00:00 00:00:00 00:00:00 00:00:00 Cross-Duathlon PO/PU
0018 1061 VILLETTE Faustine BLANC NEZ TRIATHLON 62 00:10:56 PU F 3 00:00:00 00:00:00 00:00:00 00:00:00 00:00:00 Cross-Duathlon PO/PU
0019 1062 TAUFOUR Zelie BLANC NEZ TRIATHLON 62 00:10:57 PO F 2 00:00:00 00:00:00 00:00:00 00:00:00 00:00:00 Cross-Duathlon PO/PU
0020 1105 DUPIC Titouan BLANC NEZ TRIATHLON 62 00:10:57 PO M 4 00:00:00 00:00:00 00:00:00 00:00:00 00:00:00 Cross-Duathlon PO/PU
0021 1073 CUCHEVAL Jeanne LYS CALAIS TRIATHLON 00:11:02 PU F 4 00:00:00 00:00:00 00:00:00 00:00:00 00:00:00 Cross-Duathlon PO/PU
0022 1160 JUMEL-PACIER Enzo 00:11:03 PU M 12 00:00:00 00:00:00 00:00:00 00:00:00 00:00:00 Cross-Duathlon PO/PU
0023 1118 COURBOT Mael GRAVELINES TRIATHLON 00:11:05 PU M 13 00:00:00 00:00:00 00:00:00 00:00:00 00:00:00 Cross-Duathlon PO/PU
0024 1152 MAILLET Paul 00:11:10 PU M 14 00:00:00 00:00:00 00:00:00 00:00:00 00:00:00 Cross-Duathlon PO/PU
0025 1127 HENEMAN Tom GRAVELINES TRIATHLON 00:11:13 PO M 5 00:00:00 00:00:00 00:00:00 00:00:00 00:00:00 Cross-Duathlon PO/PU
0026 1126 GUERLUS Maxence GRAVELINES TRIATHLON 00:11:15 PU M 15 00:00:00 00:00:00 00:00:00 00:00:00 00:00:00 Cross-Duathlon PO/PU
0027 1145 MORREELS Raphaël 00:11:19 PU M 16 00:00:00 00:00:00 00:00:00 00:00:00 00:00:00 Cross-Duathlon PO/PU
0028 1157 TROUILLE Jules 00:11:20 PU M 17 00:00:00 00:00:00 00:00:00 00:00:00 00:00:00 Cross-Duathlon PO/PU
0029 1074 JOLY Zelie LYS CALAIS TRIATHLON 00:11:22 PU F 5 00:00:00 00:00:00 00:00:00 00:00:00 00:00:00 Cross-Duathlon PO/PU
0030 1128 BLOUIN Charles LYS CALAIS TRIATHLON 00:11:23 PO M 6 00:00:00 00:00:00 00:00:00 00:00:00 00:00:00 Cross-Duathlon PO/PU
0031 1166 BERDIN Alix 00:11:28 PO M 7 00:00:00 00:00:00 00:00:00 00:00:00 00:00:00 Cross-Duathlon PO/PU
0032 1136 ANDRIEUX Eliott 00:11:30 PU M 18 00:00:00 00:00:00 00:00:00 00:00:00 00:00:00 Cross-Duathlon PO/PU
0033 1067 CHACHOUA Shayna GRAVELINES TRIATHLON 00:11:30 PO F 3 00:00:00 00:00:00 00:00:00 00:00:00 00:00:00 Cross-Duathlon PO/PU
0034 1068 MAILLET Zelie GRAVELINES TRIATHLON 00:11:31 PO F 4 00:00:00 00:00:00 00:00:00 00:00:00 00:00:00 Cross-Duathlon PO/PU
0035 1114 GUILBERT Clement COTE D OPALE TRIATHLON CALAIS SAINT OMER 00:11:32 PU M 19 00:00:00 00:00:00 00:00:00 00:00:00 00:00:00 Cross-Duathlon PO/PU
0036 1108 BERTHE Augustin BLANC NEZ TRIATHLON 62 00:11:37 PU M 20 00:00:00 00:00:00 00:00:00 00:00:00 00:00:00 Cross-Duathlon PO/PU
0037 1150 TOM Dumortier 00:11:39 PO M 8 00:00:00 00:00:00 00:00:00 00:00:00 00:00:00 Cross-Duathlon PO/PU
0038 1179 BREBION Noa 00:11:40 PU M 21 00:00:00 00:00:00 00:00:00 00:00:00 00:00:00 Cross-Duathlon PO/PU
0039 1115 RENARD Jules GRAVELINES TRIATHLON 00:11:41 PO M 9 00:00:00 00:00:00 00:00:00 00:00:00 00:00:00 Cross-Duathlon PO/PU
0040 1269 WATBLED Léa 00:11:41 PU F 6 00:00:00 00:00:00 00:00:00 00:00:00 00:00:00 Cross-Duathlon PO/PU
0041 1123 FOURNIER Mathys GRAVELINES TRIATHLON 00:11:46 PU M 22 00:00:00 00:00:00 00:00:00 00:00:00 00:00:00 Cross-Duathlon PO/PU
0042 1119 BEAURAIN Gabriel GRAVELINES TRIATHLON 00:11:46 PO M 10 00:00:00 00:00:00 00:00:00 00:00:00 00:00:00 Cross-Duathlon PO/PU
0043 1169 LACHGAR Aylan 00:11:48 PO M 11 00:00:00 00:00:00 00:00:00 00:00:00 00:00:00 Cross-Duathlon PO/PU
0044 1076 DEBOVE Elise MCT/LA TERRE DES 2 CAPS 00:11:48 PU F 7 00:00:00 00:00:00 00:00:00 00:00:00 00:00:00 Cross-Duathlon PO/PU
0045 1130 PILLE YARD Isaac LYS CALAIS TRIATHLON 00:11:51 PO M 12 00:00:00 00:00:00 00:00:00 00:00:00 00:00:00 Cross-Duathlon PO/PU
0046 1063 COMYN Charlotte BLANC NEZ TRIATHLON 62 00:11:52 PO F 5 00:00:00 00:00:00 00:00:00 00:00:00 00:00:00 Cross-Duathlon PO/PU
0047 1162 BLANCHARD Noa 00:11:55 PO M 13 00:00:00 00:00:00 00:00:00 00:00:00 00:00:00 Cross-Duathlon PO/PU
0048 1095 LEFEBVRE Louanne 00:11:57 PU F 8 00:00:00 00:00:00 00:00:00 00:00:00 00:00:00 Cross-Duathlon PO/PU
0049 1094 PROVIN Laurine 00:11:58 PO F 6 00:00:00 00:00:00 00:00:00 00:00:00 00:00:00 Cross-Duathlon PO/PU
0050 1107 RADUT Alexis BLANC NEZ TRIATHLON 62 00:11:58 PO M 14 00:00:00 00:00:00 00:00:00 00:00:00 00:00:00 Cross-Duathlon PO/PU
0051 1109 HIDOT DELATTRE Chad COTE D OPALE TRIATHLON CALAIS SAINT OMER 00:12:02 PU M 23 00:00:00 00:00:00 00:00:00 00:00:00 00:00:00 Cross-Duathlon PO/PU
0052 1124 MAILLET Mathis GRAVELINES TRIATHLON 00:12:04 PO M 15 00:00:00 00:00:00 00:00:00 00:00:00 00:00:00 Cross-Duathlon PO/PU
0053 1116 LORIDAN Ethan GRAVELINES TRIATHLON 00:12:07 PU M 24 00:00:00 00:00:00 00:00:00 00:00:00 00:00:00 Cross-Duathlon PO/PU
0054 1171 LEVEL Paul 00:12:10 PU M 25 00:00:00 00:00:00 00:00:00 00:00:00 00:00:00 Cross-Duathlon PO/PU
0055 1088 BLANCHARD Thaïs 00:12:14 PO F 7 00:00:00 00:00:00 00:00:00 00:00:00 00:00:00 Cross-Duathlon PO/PU
0056 1072 CUCHEVAL Adele LYS CALAIS TRIATHLON 00:12:15 PO F 8 00:00:00 00:00:00 00:00:00 00:00:00 00:00:00 Cross-Duathlon PO/PU
0057 1122 DELVOYE Louis GRAVELINES TRIATHLON 00:12:16 PO M 16 00:00:00 00:00:00 00:00:00 00:00:00 00:00:00 Cross-Duathlon PO/PU
0058 1159 MACHADO Tom 00:12:17 PU M 26 00:00:00 00:00:00 00:00:00 00:00:00 00:00:00 Cross-Duathlon PO/PU
0059 1167 NION Axel 00:12:19 PU M 27 00:00:00 00:00:00 00:00:00 00:00:00 00:00:00 Cross-Duathlon PO/PU
0060 1281 GILLET Lili- Rose 00:12:22 PO F 9 00:00:00 00:00:00 00:00:00 00:00:00 00:00:00 Cross-Duathlon PO/PU
0061 1177 REBIAI Mathis 00:12:23 PU M 28 00:00:00 00:00:00 00:00:00 00:00:00 00:00:00 Cross-Duathlon PO/PU
0062 1156 TETTART Max 00:12:32 PU M 29 00:00:00 00:00:00 00:00:00 00:00:00 00:00:00 Cross-Duathlon PO/PU
0063 1069 BERNARD Romane LYS CALAIS TRIATHLON 00:12:39 PO F 10 00:00:00 00:00:00 00:00:00 00:00:00 00:00:00 Cross-Duathlon PO/PU
0064 1064 RENAUX Chloe BLANC NEZ TRIATHLON 62 00:12:40 PU F 9 00:00:00 00:00:00 00:00:00 00:00:00 00:00:00 Cross-Duathlon PO/PU
0065 1113 REVEILLON Clovis COTE D OPALE TRIATHLON CALAIS SAINT OMER 00:12:41 PO M 17 00:00:00 00:00:00 00:00:00 00:00:00 00:00:00 Cross-Duathlon PO/PU
0066 1084 DELACROIX Elisa 00:12:42 PU F 10 00:00:00 00:00:00 00:00:00 00:00:00 00:00:00 Cross-Duathlon PO/PU
0067 1148 DELATTRE Gabriel 00:12:47 PO M 18 00:00:00 00:00:00 00:00:00 00:00:00 00:00:00 Cross-Duathlon PO/PU
0068 1144 ORDYNSKI Ephram 00:12:51 PU M 30 00:00:00 00:00:00 00:00:00 00:00:00 00:00:00 Cross-Duathlon PO/PU
0069 1277 PATSY-BERTIN Maxence 00:12:51 PO M 19 00:00:00 00:00:00 00:00:00 00:00:00 00:00:00 Cross-Duathlon PO/PU
0070 1278 PATSY-BERTIN ? 00:12:54 PO M 20 00:00:00 00:00:00 00:00:00 00:00:00 00:00:00 Cross-Duathlon PO/PU
0071 1102 VANHAECKE Hortense 00:12:56 PU F 11 00:00:00 00:00:00 00:00:00 00:00:00 00:00:00 Cross-Duathlon PO/PU
0072 1149 ANNE Antoine 00:12:58 PU M 31 00:00:00 00:00:00 00:00:00 00:00:00 00:00:00 Cross-Duathlon PO/PU
0073 1121 CHACHOUA Zyan GRAVELINES TRIATHLON 00:13:01 PU M 32 00:00:00 00:00:00 00:00:00 00:00:00 00:00:00 Cross-Duathlon PO/PU
0074 1139 DELEPIERRE Axel 00:13:01 PO M 21 00:00:00 00:00:00 00:00:00 00:00:00 00:00:00 Cross-Duathlon PO/PU
0075 1161 FRELECHOUX Ewen 00:13:02 PU M 33 00:00:00 00:00:00 00:00:00 00:00:00 00:00:00 Cross-Duathlon PO/PU
0076 1087 CARPENTIER Laura 00:13:03 PO F 11 00:00:00 00:00:00 00:00:00 00:00:00 00:00:00 Cross-Duathlon PO/PU
0077 1070 BLOUIN Prunelle LYS CALAIS TRIATHLON 00:13:04 PO F 12 00:00:00 00:00:00 00:00:00 00:00:00 00:00:00 Cross-Duathlon PO/PU
0078 1282 KEELEY Skye 00:13:05 PO M 22 00:00:00 00:00:00 00:00:00 00:00:00 00:00:00 Cross-Duathlon PO/PU
0079 1264 HOUSSIN Charles 00:13:07 PO M 23 00:00:00 00:00:00 00:00:00 00:00:00 00:00:00 Cross-Duathlon PO/PU
0080 1164 DEVOS Paul 00:13:07 PO M 24 00:00:00 00:00:00 00:00:00 00:00:00 00:00:00 Cross-Duathlon PO/PU
0081 1080 CAMBOULIVES Elsa 00:13:08 PO F 13 00:00:00 00:00:00 00:00:00 00:00:00 00:00:00 Cross-Duathlon PO/PU
0082 1099 DESOMBRE Agathe 00:13:10 PO F 14 00:00:00 00:00:00 00:00:00 00:00:00 00:00:00 Cross-Duathlon PO/PU
0083 1172 MARTIN Lénaïc 00:13:17 PO M 25 00:00:00 00:00:00 00:00:00 00:00:00 00:00:00 Cross-Duathlon PO/PU
0084 1085 TRONET Capucine 00:13:18 PO F 15 00:00:00 00:00:00 00:00:00 00:00:00 00:00:00 Cross-Duathlon PO/PU
0085 1147 MASQUELEIN Pier-malo 00:13:19 PO M 26 00:00:00 00:00:00 00:00:00 00:00:00 00:00:00 Cross-Duathlon PO/PU
0086 1146 LEFIEF Luca 00:13:20 PU M 34 00:00:00 00:00:00 00:00:00 00:00:00 00:00:00 Cross-Duathlon PO/PU
0087 1173 GAGNE Mathis 00:13:25 PO M 27 00:00:00 00:00:00 00:00:00 00:00:00 00:00:00 Cross-Duathlon PO/PU
0088 1165 MELIN Cyprien 00:13:35 PO M 28 00:00:00 00:00:00 00:00:00 00:00:00 00:00:00 Cross-Duathlon PO/PU
0089 1151 DELCAMBRE Mateo 00:13:35 PU M 35 00:00:00 00:00:00 00:00:00 00:00:00 00:00:00 Cross-Duathlon PO/PU
0090 1141 CHOCHOIS Grégory 00:13:36 PO M 29 00:00:00 00:00:00 00:00:00 00:00:00 00:00:00 Cross-Duathlon PO/PU
0091 1092 COURBOT Rachel 00:13:38 PO F 16 00:00:00 00:00:00 00:00:00 00:00:00 00:00:00 Cross-Duathlon PO/PU
0092 1180 FOURNIER Kylian 00:13:47 PO M 30 00:00:00 00:00:00 00:00:00 00:00:00 00:00:00 Cross-Duathlon PO/PU
0093 1153 HENAULT Lucas 00:13:56 PO M 31 00:00:00 00:00:00 00:00:00 00:00:00 00:00:00 Cross-Duathlon PO/PU
0094 1103 CLABAUT Clemence 00:14:08 PO F 17 00:00:00 00:00:00 00:00:00 00:00:00 00:00:00 Cross-Duathlon PO/PU
0095 1284 DUFOUR Valentin 00:14:20 PU M 36 00:00:00 00:00:00 00:00:00 00:00:00 00:00:00 Cross-Duathlon PO/PU
0096 1154 DECROCK Noah 00:14:28 PO M 32 00:00:00 00:00:00 00:00:00 00:00:00 00:00:00 Cross-Duathlon PO/PU
0097 1158 MALESYS Tom 00:14:28 PU M 37 00:00:00 00:00:00 00:00:00 00:00:00 00:00:00 Cross-Duathlon PO/PU
0098 1066 DACQUIN Lou COTE D OPALE TRIATHLON CALAIS SAINT OMER 00:14:28 PO F 18 00:00:00 00:00:00 00:00:00 00:00:00 00:00:00 Cross-Duathlon PO/PU
0099 1262 LENGAGNE Lilia 00:14:36 PO F 19 00:00:00 00:00:00 00:00:00 00:00:00 00:00:00 Cross-Duathlon PO/PU
0100 1083 DELÉGLISE Laurine 00:14:40 PO F 20 00:00:00 00:00:00 00:00:00 00:00:00 00:00:00 Cross-Duathlon PO/PU
0101 1097 DUBUIS Alexia 00:14:44 PO F 21 00:00:00 00:00:00 00:00:00 00:00:00 00:00:00 Cross-Duathlon PO/PU
0102 1089 CAILLIAU Laura 00:14:45 PU F 12 00:00:00 00:00:00 00:00:00 00:00:00 00:00:00 Cross-Duathlon PO/PU
0103 1078 GRESSIER Zoé 00:14:52 PU F 13 00:00:00 00:00:00 00:00:00 00:00:00 00:00:00 Cross-Duathlon PO/PU
0104 1143 LUTHUN Jules 00:14:53 PO M 33 00:00:00 00:00:00 00:00:00 00:00:00 00:00:00 Cross-Duathlon PO/PU
0105 1082 LECOUTRE Ambre 00:15:02 PO F 22 00:00:00 00:00:00 00:00:00 00:00:00 00:00:00 Cross-Duathlon PO/PU
0106 1175 LEFEBVRE Loup 00:15:11 PU M 38 00:00:00 00:00:00 00:00:00 00:00:00 00:00:00 Cross-Duathlon PO/PU
0107 1270 LECOCQ Emeline 00:15:18 PO F 23 00:00:00 00:00:00 00:00:00 00:00:00 00:00:00 Cross-Duathlon PO/PU
0108 1093 COLIN Adèle 00:15:23 PO F 24 00:00:00 00:00:00 00:00:00 00:00:00 00:00:00 Cross-Duathlon PO/PU
0109 1086 DEGOUY Eleonore 00:15:29 PU F 14 00:00:00 00:00:00 00:00:00 00:00:00 00:00:00 Cross-Duathlon PO/PU
0110 1065 DACQUIN Elsa COTE D OPALE TRIATHLON CALAIS SAINT OMER 00:15:33 PO F 25 00:00:00 00:00:00 00:00:00 00:00:00 00:00:00 Cross-Duathlon PO/PU
0111 1280 FATAHI Mathéo 00:15:40 PU M 39 00:00:00 00:00:00 00:00:00 00:00:00 00:00:00 Cross-Duathlon PO/PU
0112 1096 LEMAITRE Louise 00:15:42 PO F 26 00:00:00 00:00:00 00:00:00 00:00:00 00:00:00 Cross-Duathlon PO/PU
0113 1101 DUQUENOY Jeanne 00:16:13 PO F 27 00:00:00 00:00:00 00:00:00 00:00:00 00:00:00 Cross-Duathlon PO/PU
0114 1081 DELCAMBRE Oceane 00:16:50 PO F 28 00:00:00 00:00:00 00:00:00 00:00:00 00:00:00 Cross-Duathlon PO/PU
0115 1079 DUQUENOY Lilou 00:16:58 PO F 29 00:00:00 00:00:00 00:00:00 00:00:00 00:00:00 Cross-Duathlon PO/PU
0116 1283 DUFOUR Charlotte 00:17:01 PO F 30 00:00:00 00:00:00 00:00:00 00:00:00 00:00:00 Cross-Duathlon PO/PU
0117 1098 RENAUT Zoé 00:17:05 PO F 31 00:00:00 00:00:00 00:00:00 00:00:00 00:00:00 Cross-Duathlon PO/PU
0118 1176 LEFEBVRE Lily 00:17:11 PO M 34 00:00:00 00:00:00 00:00:00 00:00:00 00:00:00 Cross-Duathlon PO/PU
0119 1271 BERNARD Honorine 00:17:11 PO F 32 00:00:00 00:00:00 00:00:00 00:00:00 00:00:00 Cross-Duathlon PO/PU
DNS 1090 HENQUEZ Elise 00:00:00 PU F 0 00:00:00 00:00:00 00:00:00 00:00:00 00:00:00 Cross-Duathlon PO/PU
DNS 1091 PATRON Manon 00:00:00 PO F 0 00:00:00 00:00:00 00:00:00 00:00:00 00:00:00 Cross-Duathlon PO/PU
DNS 1100 DUQUENOY Jeanne 00:00:00 PO F 0 00:00:00 00:00:00 00:00:00 00:00:00 00:00:00 Cross-Duathlon PO/PU
DNS 1111 THESSE Alexis COTE D OPALE TRIATHLON CALAIS SAINT OMER 00:00:00 PO M 0 00:00:00 00:00:00 00:00:00 00:00:00 00:00:00 Cross-Duathlon PO/PU
DNS 1112 THESSE Valentin COTE D OPALE TRIATHLON CALAIS SAINT OMER 00:00:00 PO M 0 00:00:00 00:00:00 00:00:00 00:00:00 00:00:00 Cross-Duathlon PO/PU
DNS 1131 COURCOT Alexandre LYS CALAIS TRIATHLON 00:00:00 PU M 0 00:00:00 00:00:00 00:00:00 00:00:00 00:00:00 Cross-Duathlon PO/PU
DNS 1137 PAGAN Mathieu 00:00:00 PO M 0 00:00:00 00:00:00 00:00:00 00:00:00 00:00:00 Cross-Duathlon PO/PU
DNS 1138 PAGAN Antonin 00:00:00 PU M 0 00:00:00 00:00:00 00:00:00 00:00:00 00:00:00 Cross-Duathlon PO/PU
DNS 1142 WAELES Clovis 00:00:00 PO M 0 00:00:00 00:00:00 00:00:00 00:00:00 00:00:00 Cross-Duathlon PO/PU
DNS 1155 DECROCK Hugo 00:00:00 PU M 0 00:00:00 00:00:00 00:00:00 00:00:00 00:00:00 Cross-Duathlon PO/PU
DNS 1168 COLIN Oscar 00:00:00 PU M 0 00:00:00 00:00:00 00:00:00 00:00:00 00:00:00 Cross-Duathlon PO/PU
DNS 1170 DROP Flavien 00:00:00 PO M 0 00:00:00 00:00:00 00:00:00 00:00:00 00:00:00 Cross-Duathlon PO/PU
DNS 1178 FEUILLET Pierre 00:00:00 PU M 0 00:00:00 00:00:00 00:00:00 00:00:00 00:00:00 Cross-Duathlon PO/PU
DNS 1191 BIA Gaspar LYS CALAIS TRIATHLON 00:00:00 PU M 0 00:00:00 00:00:00 00:00:00 00:00:00 00:00:00 Cross-Duathlon PO/PU
DSQ 1163 LEGILLON Emilien 00:00:00 PU M 0 00:00:00 00:00:00 00:00:00 00:00:00 00:00:00 Cross-Duathlon PO/PU


Duathlon M
Scratch Nom Prénom Club Temps Cat. Clt. Cat. Nat. #1 Vélo #2 CaP ... Course
0001 114 BAROUX Nicolas COTE D OPALE TRIATHLON CALAIS SAINT OMER 01:23:15 SE M 1 00:16:15 00:00:00 00:49:15 00:00:00 00:17:46 Duathlon M
0002 29 STEELANDT Victor COTE D OPALE TRIATHLON CALAIS SAINT OMER 01:26:56 SE M 2 00:16:15 00:00:00 00:52:04 00:00:00 00:18:38 Duathlon M
0003 22 LECLERCQ David COTE D OPALE TRIATHLON CALAIS SAINT OMER 01:27:11 SE M 3 00:16:20 00:00:00 00:52:14 00:00:00 00:18:39 Duathlon M
0004 28 THESSE David COTE D OPALE TRIATHLON CALAIS SAINT OMER 01:27:44 V1 M 1 00:16:42 00:00:00 00:52:54 00:00:00 00:18:09 Duathlon M
0005 21 DEQUIDT Julien COTE D OPALE TRIATHLON CALAIS SAINT OMER 01:28:30 SE M 4 00:16:19 00:00:00 00:53:26 00:00:00 00:18:45 Duathlon M
0006 26 CHAMBELLAND Cyril COTE D OPALE TRIATHLON CALAIS SAINT OMER 01:28:41 V1 M 2 00:17:20 00:00:00 00:52:22 00:00:00 00:19:00 Duathlon M
0007 38 CUCHEVAL Mathias LYS CALAIS TRIATHLON 01:29:08 SE M 5 00:17:19 00:00:00 00:52:24 00:00:00 00:19:26 Duathlon M
0008 341 FOUBLE Laurent 01:32:00 SE M 6 00:18:42 00:00:00 00:53:29 00:00:00 00:19:49 Duathlon M
0009 116 MATHYS Luc 01:33:31 SE M 7 00:17:38 00:00:00 00:55:15 00:00:00 00:20:39 Duathlon M
0010 56 LOOTEN Bernard TRIATHLON LITTORAL 59 01:33:49 V2 M 1 00:18:04 00:00:00 00:55:22 00:00:00 00:20:24 Duathlon M
0011 33 SBARDELLA Francois GRAVELINES TRIATHLON 01:34:00 SE M 8 00:18:17 00:00:00 00:55:00 00:00:00 00:20:44 Duathlon M
0012 24 BASTIEN Alois COTE D OPALE TRIATHLON CALAIS SAINT OMER 01:34:39 SE M 9 00:17:05 00:00:00 00:57:56 00:00:00 00:19:39 Duathlon M
0013 54 VERGNIEZ Valentin TRIATHLON CLUB DU MONTREUILLOIS 01:34:41 JU M 1 00:18:04 00:00:00 00:56:03 00:00:00 00:20:35 Duathlon M
0014 39 BIGAN Mathieu LYS CALAIS TRIATHLON 01:34:47 SE M 10 00:18:33 00:00:00 00:55:14 00:00:00 00:21:02 Duathlon M
0015 55 POUPART Pierre TRIATHLON CLUB DU MONTREUILLOIS 01:34:58 SE M 11 00:18:56 00:00:00 00:54:56 00:00:00 00:21:06 Duathlon M
0016 45 BASTIEN Florian GRAVELINES TRIATHLON 01:35:09 SE M 12 00:17:38 00:00:00 00:57:07 00:00:00 00:20:26 Duathlon M
0017 57 NOWE Arnaud TRIATHLON LITTORAL 59 01:35:19 V1 M 3 00:16:20 00:00:00 00:59:40 00:00:00 00:19:21 Duathlon M
0018 73 DELARACE Marc 01:36:00 SE M 13 00:18:40 00:00:00 00:55:30 00:00:00 00:21:51 Duathlon M
0019 40 RICOUART Gerard LYS CALAIS TRIATHLON 01:36:14 SE M 14 00:18:54 00:00:00 00:56:36 00:00:00 00:20:44 Duathlon M
0020 25 CANU Laurent COTE D OPALE TRIATHLON CALAIS SAINT OMER 01:36:21 V2 M 2 00:19:22 00:00:00 00:55:08 00:00:00 00:21:53 Duathlon M
0021 79 DEZÈGUE Dany 01:36:29 SE M 15 00:17:46 00:00:00 00:57:49 00:00:00 00:20:55 Duathlon M
0022 23 CUCHEVAL Gregory COTE D OPALE TRIATHLON CALAIS SAINT OMER 01:37:21 V1 M 4 00:19:22 00:00:00 00:55:13 00:00:00 00:22:47 Duathlon M
0023 44 DIVE Frederic O.S.M.L. NATATION-TRIATHLON 01:38:21 SE M 16 00:17:47 00:00:00 00:58:10 00:00:00 00:22:25 Duathlon M
0024 86 LARUELLE Frédéric 01:39:51 V2 M 3 00:20:45 00:00:00 00:57:25 00:00:00 00:21:42 Duathlon M
0025 76 PRUVOT Ludovic 01:40:22 V1 M 5 00:18:46 00:00:00 01:00:44 00:00:00 00:20:52 Duathlon M
0026 42 MEURET Franck LYS CALAIS TRIATHLON 01:41:26 V3 M 1 00:20:27 00:00:00 00:58:46 00:00:00 00:22:14 Duathlon M
0027 104 COULON Benoit 01:41:30 SE M 17 00:18:35 00:00:00 01:02:15 00:00:00 00:20:41 Duathlon M
0028 110 CEDRIC Level 01:41:38 SE M 18 00:19:56 00:00:00 00:59:21 00:00:00 00:22:22 Duathlon M
0029 91 LORIDAN Ludovic 01:41:45 SE M 19 00:17:38 00:00:00 01:03:02 00:00:00 00:21:06 Duathlon M
0030 112 VIELLIARD Maxence 01:41:55 SE M 20 00:21:19 00:00:00 00:58:04 00:00:00 00:22:33 Duathlon M
0031 37 DELBECQUE Vincent LYS CALAIS TRIATHLON 01:42:11 SE M 21 00:20:14 00:00:00 00:58:55 00:00:00 00:23:03 Duathlon M
0032 30 SEDDIKI Simon COTE D OPALE TRIATHLON CALAIS SAINT OMER 01:42:19 SE M 22 00:20:48 00:00:00 00:56:57 00:00:00 00:24:35 Duathlon M
0033 31 LEFEBVRE William GRAVELINES TRIATHLON 01:42:23 SE M 23 00:20:14 00:00:00 00:59:07 00:00:00 00:23:03 Duathlon M
0034 84 XAVIER Decamp 01:42:49 V1 M 6 00:20:24 00:00:00 00:59:02 00:00:00 00:23:24 Duathlon M
0035 32 LUCAS Jean henri GRAVELINES TRIATHLON 01:43:02 SE M 24 00:20:09 00:00:00 01:00:59 00:00:00 00:21:56 Duathlon M
0036 15 MEYERS Laurane 01:43:18 JU F 1 00:20:29 00:00:00 01:00:32 00:00:00 00:22:17 Duathlon M
0037 43 DUBOIS Tony LYS CALAIS TRIATHLON 01:44:32 V2 M 4 00:19:41 00:00:00 01:02:54 00:00:00 00:21:57 Duathlon M
0038 17 SKRZYPCZAK David BERCK OPALE SUD TRIATHLON 01:44:56 SE M 25 00:20:09 00:00:00 00:58:52 00:00:00 00:25:56 Duathlon M
0039 94 LAVOINE Frederic 01:45:19 V2 M 5 00:21:16 00:00:00 00:59:19 00:00:00 00:24:44 Duathlon M
0040 51 LELEU Jean marc TRIATHLON CLUB DE LIEVIN 01:45:36 V2 M 6 00:21:37 00:00:00 00:59:26 00:00:00 00:24:34 Duathlon M
0041 225 CUCHEVAL Florence LYS CALAIS TRIATHLON 01:46:11 SE F 1 00:21:03 00:00:00 01:02:30 00:00:00 00:22:39 Duathlon M
0042 41 DUMONT Florent LYS CALAIS TRIATHLON 01:46:30 V1 M 7 00:19:47 00:00:00 01:03:27 00:00:00 00:23:17 Duathlon M
0043 46 DUBRULLE Pascal RAISMES TRIATHLON CLUB 01:46:40 V3 M 2 00:20:26 00:00:00 01:02:05 00:00:00 00:24:10 Duathlon M
0044 1 HUYSENTRUYT Marie charlotte COTE D OPALE TRIATHLON CALAIS SAINT OMER 01:47:06 SE F 2 00:20:01 00:00:00 01:05:13 00:00:00 00:21:54 Duathlon M
0045 63 QUENEHEN Emmanuel 01:47:10 SE M 26 00:21:29 00:00:00 01:00:47 00:00:00 00:24:55 Duathlon M
0046 88 ROZÉ Frédéric 01:47:25 SE M 27 00:19:34 00:00:00 01:03:53 00:00:00 00:23:59 Duathlon M
0047 9 SANTENS Laureline VALENCIENNES TRIATHLON 01:47:34 SE F 3 00:21:00 00:00:00 01:03:54 00:00:00 00:22:41 Duathlon M
0048 108 MOUSSAY Matt 01:49:01 SE M 28 00:20:17 00:00:00 01:05:55 00:00:00 00:22:51 Duathlon M
0049 109 PLANQUE Florent 01:49:14 SE M 29 00:19:55 00:00:00 01:05:25 00:00:00 00:23:55 Duathlon M
0050 99 DUWAT Frederic 01:49:17 V3 M 3 00:20:59 00:00:00 01:05:14 00:00:00 00:23:06 Duathlon M
0051 34 LAMS Guenole GRAVELINES TRIATHLON 01:49:35 V1 M 8 00:21:13 00:00:00 01:03:49 00:00:00 00:24:34 Duathlon M
0052 69 MARTIN Andy 01:49:50 SE M 30 00:19:55 00:00:00 01:04:24 00:00:00 00:25:32 Duathlon M
0053 75 CONVENANCE Pierre 01:50:18 SE M 31 00:21:32 00:00:00 01:04:05 00:00:00 00:24:41 Duathlon M
0054 67 CLABAUT David 01:50:53 V1 M 9 00:21:53 00:00:00 01:03:32 00:00:00 00:25:29 Duathlon M
0055 102 CALLEWAERT Mickaël 01:50:55 V1 M 10 00:20:16 00:00:00 01:05:59 00:00:00 00:24:41 Duathlon M
0056 68 BOUDRINGHIN Jean marc 01:51:01 V2 M 7 00:21:37 00:00:00 01:03:46 00:00:00 00:25:39 Duathlon M
0057 4 LOYER Virginie LYS CALAIS TRIATHLON 01:51:11 SE F 4 00:22:03 00:00:00 01:03:07 00:00:00 00:26:02 Duathlon M
0058 47 BAELEN Dominique SKWAL ATHLON 01:51:43 V2 M 8 00:21:00 00:00:00 01:07:02 00:00:00 00:23:42 Duathlon M
0059 85 JASPART Jerome 01:51:49 SE M 32 00:21:19 00:00:00 01:06:43 00:00:00 00:23:48 Duathlon M
0060 78 DUSART Pascal 01:52:05 V3 M 4 00:23:46 00:00:00 01:01:06 00:00:00 00:27:14 Duathlon M
0061 50 DUBOIS Etienne TRIATHLON CLUB DE LIEVIN 01:52:40 V2 M 9 00:22:54 00:00:00 01:02:57 00:00:00 00:26:51 Duathlon M
0062 72 CARBONNIER Michel 01:52:48 V2 M 10 00:20:31 00:00:00 01:06:26 00:00:00 00:25:52 Duathlon M
0063 53 SAVARY Benoit TRIATHLON CLUB DE LIEVIN 01:52:49 V1 M 11 00:19:57 00:00:00 01:10:43 00:00:00 00:22:10 Duathlon M
0064 83 ROGER Didier 01:53:04 V3 M 5 00:21:55 00:00:00 01:05:36 00:00:00 00:25:34 Duathlon M
0065 90 COURDENT Antoine 01:53:41 SE M 33 00:22:04 00:00:00 01:06:18 00:00:00 00:25:20 Duathlon M
0066 10 PERARD Marie 01:53:53 V3 F 1 00:21:54 00:00:00 01:07:45 00:00:00 00:24:15 Duathlon M
0067 100 DOYER Eric 01:54:04 V2 M 11 00:22:02 00:00:00 01:03:52 00:00:00 00:28:11 Duathlon M
0068 98 PUJADE Francois 01:54:55 SE M 34 00:23:12 00:00:00 01:05:18 00:00:00 00:26:25 Duathlon M
0069 111 BARBE Stephane 01:55:16 V1 M 12 00:20:13 00:00:00 01:11:33 00:00:00 00:23:31 Duathlon M
0070 19 COURBO Arnaud 01:55:34 V2 M 12 00:21:13 00:00:00 01:08:48 00:00:00 00:25:34 Duathlon M
0071 89 HIBOS Julien 01:55:39 SE M 35 00:21:34 00:00:00 01:08:03 00:00:00 00:26:03 Duathlon M
0072 103 SCHOTT Andre 01:55:43 SE M 36 00:21:43 00:00:00 01:06:30 00:00:00 00:27:31 Duathlon M
0073 6 NOTEBAERT Laurence TRIATHLON CLUB DE LIEVIN 01:55:49 V1 F 1 00:22:03 00:00:00 01:09:34 00:00:00 00:24:13 Duathlon M
0074 95 DARTUS Jerome 01:55:51 V2 M 13 00:22:05 00:00:00 01:06:29 00:00:00 00:27:18 Duathlon M
0075 87 QUENNEHEN Hervé 01:55:55 V1 M 13 00:21:36 00:00:00 01:09:24 00:00:00 00:24:57 Duathlon M
0076 299 MARTIN Cardon 01:56:01 SE M 37 00:21:31 00:00:00 01:09:44 00:00:00 00:24:47 Duathlon M
0077 36 DUBRULLE Julien LILLE TRIATHLON 01:56:23 SE M 38 00:20:53 00:00:00 01:07:44 00:00:00 00:27:47 Duathlon M
0078 107 BROWN Kevin England Athletics Federation 01:56:40 V3 M 6 00:20:19 00:00:00 01:13:09 00:00:00 00:23:13 Duathlon M
0079 113 MELIN Cédric 01:57:45 SE M 39 00:22:06 00:00:00 01:05:42 00:00:00 00:29:58 Duathlon M
0080 61 JULIEN Willy 01:58:09 V1 M 14 00:21:37 00:00:00 01:04:18 00:00:00 00:32:15 Duathlon M
0081 64 LENSEN Eric 01:58:55 V2 M 14 00:23:59 00:00:00 01:08:30 00:00:00 00:26:28 Duathlon M
0082 12 ELLART Helene 01:59:43 SE F 5 00:22:15 00:00:00 01:09:34 00:00:00 00:27:55 Duathlon M
0083 101 ANTOINE Eric 02:00:00 V2 M 15 00:21:57 00:00:00 01:10:45 00:00:00 00:27:19 Duathlon M
0084 5 LEBEURRE André 02:00:25 V3 M 7 00:23:24 00:00:00 01:10:05 00:00:00 00:26:57 Duathlon M
0085 65 JANKIEWICZ Emmanuel 02:01:21 SE M 40 00:21:59 00:00:00 01:12:13 00:00:00 00:27:10 Duathlon M
0086 82 BUY Jacques 02:02:03 V3 M 8 00:21:17 00:00:00 01:14:25 00:00:00 00:26:23 Duathlon M
0087 80 OUART Christophe 02:03:24 V2 M 16 00:25:33 00:00:00 01:09:17 00:00:00 00:28:34 Duathlon M
0088 27 DELEU Patrick COTE D OPALE TRIATHLON CALAIS SAINT OMER 02:04:27 V3 M 9 00:22:38 00:00:00 01:14:56 00:00:00 00:26:54 Duathlon M
0089 49 ALLARD Eric TRIATHLON CLUB DE LIEVIN 02:04:50 V3 M 10 00:24:55 00:00:00 01:11:43 00:00:00 00:28:13 Duathlon M
0090 14 BECQUET Karine 02:04:55 V1 F 2 00:23:45 00:00:00 01:13:56 00:00:00 00:27:15 Duathlon M
0091 74 DELEPIERRE Sylvain 02:05:26 V1 M 15 00:22:53 00:00:00 01:15:00 00:00:00 00:27:34 Duathlon M
0092 18 SAUVAGE Julien BLANC NEZ TRIATHLON 62 02:06:09 V1 M 16 00:25:13 00:00:00 01:09:20 00:00:00 00:31:37 Duathlon M
0093 106 STUART NEILSON Mr ITU British Federation 02:06:23 V2 M 17 00:23:17 00:00:00 01:14:23 00:00:00 00:28:44 Duathlon M
0094 13 ROGER Emilie 02:07:51 SE F 6 00:24:52 00:00:00 01:15:30 00:00:00 00:27:30 Duathlon M
0095 97 FEVRIER Didier 02:08:34 V2 M 18 00:24:28 00:00:00 01:16:02 00:00:00 00:28:06 Duathlon M
0096 58 TURPIN Yannick VALENCIENNES TRIATHLON 02:10:46 V1 M 17 00:19:27 00:00:00 01:25:36 00:00:00 00:25:44 Duathlon M
0097 52 ANSART Jean marie TRIATHLON CLUB DE LIEVIN 02:10:48 V1 M 18 00:25:02 00:00:00 01:15:30 00:00:00 00:30:18 Duathlon M
0098 11 GUMUS Emeline 02:12:36 SE F 7 00:23:36 00:00:00 01:23:09 00:00:00 00:25:52 Duathlon M
0099 3 PAPINEAU Nathalie CREPY TRIATHLON 02:14:37 V2 F 1 00:25:43 00:00:00 01:19:43 00:00:00 00:29:11 Duathlon M
0100 77 BOUILLON Alex 02:15:47 JU M 2 00:26:21 00:00:00 01:17:46 00:00:00 00:31:41 Duathlon M
0101 70 DEMILLY Sebastien 02:18:44 SE M 41 00:24:32 00:00:00 01:22:24 00:00:00 00:31:49 Duathlon M
0102 71 GOLLIOT Sebastien 02:19:20 V1 M 19 00:24:29 00:00:00 01:23:13 00:00:00 00:31:40 Duathlon M
0103 7 BAYARD Christine TRIATHLON CLUB DE LIEVIN 02:20:49 V1 F 3 00:27:06 00:00:00 01:21:31 00:00:00 00:32:13 Duathlon M
0104 276 CLABAULT Pierre 02:27:47 SE M 42 00:29:44 00:00:00 01:23:22 00:00:00 00:34:41 Duathlon M
0105 8 DEHANDSCHOEWERCKER Sandrine TRIATHLON LITTORAL 59 02:36:22 V3 F 2 00:30:30 00:00:00 01:28:07 00:00:00 00:37:46 Duathlon M
DNF 92 AUMAR Aurélien 00:00:00 SE M 0 00:19:22 00:00:00 00:00:00 00:00:00 00:00:00 Duathlon M
DNF 59 RETAILLEAU Vincent VILLENEUVE D ASCQ TRIATHLON 00:00:00 SE M 0 00:19:56 00:00:00 00:00:00 00:00:00 00:00:00 Duathlon M
DNF 2 CHAMBELLAND Frederique COTE D OPALE TRIATHLON CALAIS SAINT OMER 00:00:00 V1 F 0 00:21:24 00:00:00 00:00:00 00:00:00 00:00:00 Duathlon M
DNF 16 PROVIN Mickael A.S. ETAPLES TRIATHLON 00:00:00 V1 M 0 00:21:34 00:00:00 00:00:00 00:00:00 00:00:00 Duathlon M
DNF 81 CHOCHOIS Grégory 00:00:00 SE M 0 00:21:42 00:00:00 00:00:00 00:00:00 00:00:00 Duathlon M
DNF 105 LEFIEF Maxime 00:00:00 SE M 0 00:21:57 00:00:00 00:00:00 00:00:00 00:00:00 Duathlon M
DNF 60 DERING Philippe 00:00:00 V3 M 0 00:22:53 00:00:00 00:00:00 00:00:00 00:00:00 Duathlon M
DNF 62 KIEKEN Tony 00:00:00 V1 M 0 00:24:08 00:00:00 00:00:00 00:00:00 00:00:00 Duathlon M
DNF 20 JOIRE Tanguy BLANC NEZ TRIATHLON 62 00:00:00 V1 M 0 00:18:41 00:00:00 01:12:05 00:00:00 00:00:00 Duathlon M
DNS 35 PIEDBOIS Vincent GRAVELINES TRIATHLON 00:00:00 SE M 0 00:00:00 00:00:00 00:00:00 00:00:00 00:00:00 Duathlon M
DNS 48 MOREL Sebastien TRIATHLON CLUB D`HAZEBROUCK 00:00:00 SE M 0 00:00:00 00:00:00 00:00:00 00:00:00 00:00:00 Duathlon M
DNS 66 MADDENS Conraad ITU Belgian Federation 00:00:00 V3 M 0 00:00:00 00:00:00 00:00:00 00:00:00 00:00:00 Duathlon M
DNS 93 ANDRÉ Lebeurre 00:00:00 V3 M 0 00:00:00 00:00:00 00:00:00 00:00:00 00:00:00 Duathlon M
DNS 96 HERMEL Thierry 00:00:00 V2 M 0 00:00:00 00:00:00 00:00:00 00:00:00 00:00:00 Duathlon M
DNS 115 LOQUET Ludovic 00:00:00 V3 M 0 00:00:00 00:00:00 00:00:00 00:00:00 00:00:00 Duathlon M


Triathlon M
Scratch Nom Prénom Club Temps Cat. Clt. Cat. Nat. #1 Vélo #2 CaP ... Course
0001 279 RENARD Emmanuel 01:26:16 SE M 1 00:16:02 00:00:00 00:51:09 00:00:00 00:19:06 Triathlon M
0002 253 MARCQ Julien TRIATHLON LITTORAL 59 01:27:49 SE M 2 00:16:48 00:00:00 00:52:37 00:00:00 00:18:25 Triathlon M
0003 163 LOUCHAERT Emmanuel COTE D OPALE TRIATHLON CALAIS SAINT OMER 01:27:56 SE M 3 00:15:56 00:00:00 00:53:29 00:00:00 00:18:31 Triathlon M
0004 250 GALLET Mathieu TRIATHLON CLUB DE LIEVIN 01:30:34 JU M 1 00:16:19 00:00:00 00:55:18 00:00:00 00:18:58 Triathlon M
0005 172 DUWAT Simon COTE D OPALE TRIATHLON CALAIS SAINT OMER 01:30:37 JU M 2 00:15:47 00:00:00 00:56:08 00:00:00 00:18:43 Triathlon M
0006 159 AMATO Raphael CLUB LOISIRS LEO LAGRANGE 01:30:38 SE M 4 00:17:58 00:00:00 00:53:28 00:00:00 00:19:13 Triathlon M
0007 247 FOUTREIN Pierre TRIATHLON CLUB DE LIEVIN 01:31:59 SE M 5 00:17:09 00:00:00 00:56:03 00:00:00 00:18:49 Triathlon M
0008 321 GRUWE Frédéric 01:33:40 SE M 6 00:18:08 00:00:00 00:55:56 00:00:00 00:19:37 Triathlon M
0009 252 DESCAMPS Pascal TRIATHLON LITTORAL 59 01:33:49 V1 M 1 00:18:12 00:00:00 00:55:45 00:00:00 00:19:53 Triathlon M
0010 200 BRAZY Julien LES TRITONS MELDOIS 01:34:07 SE M 7 00:21:09 00:00:00 00:54:42 00:00:00 00:18:16 Triathlon M
0011 165 DELDICQUE Loic COTE D OPALE TRIATHLON CALAIS SAINT OMER 01:34:30 SE M 8 00:17:53 00:00:00 00:53:24 00:00:00 00:23:13 Triathlon M
0012 339 CLAM Simon ITU Belgian Federation 01:35:03 SE M 9 00:19:12 00:00:00 00:55:59 00:00:00 00:19:53 Triathlon M
0013 330 LALOY Valentin 01:35:26 SE M 10 00:17:16 00:00:00 00:56:40 00:00:00 00:21:31 Triathlon M
0014 267 MARIN Nicolas VALENCIENNES TRIATHLON 01:35:51 SE M 11 00:19:01 00:00:00 00:56:23 00:00:00 00:20:28 Triathlon M
0015 251 GYTHIEL Franck TRIATHLON LITTORAL 59 01:35:59 V1 M 2 00:18:39 00:00:00 00:56:14 00:00:00 00:21:07 Triathlon M
0016 229 SAPET Christophe RACING CLUB ARRAS TRIATHLON 01:36:15 V1 M 3 00:18:12 00:00:00 00:56:17 00:00:00 00:21:48 Triathlon M
0017 384 DEGELDER Laurent 01:36:31 V2 M 1 00:21:00 00:00:00 00:55:36 00:00:00 00:19:56 Triathlon M
0018 205 CARPENTIER Antoine LILLE TRIATHLON 01:36:49 SE M 12 00:18:05 00:00:00 00:57:27 00:00:00 00:21:18 Triathlon M
0019 354 DESMET Lieven ITU Belgian Federation 01:36:50 V2 M 2 00:18:51 00:00:00 00:57:42 00:00:00 00:20:18 Triathlon M
0020 181 DUBUISSON Romain GRAVELINES TRIATHLON 01:37:12 SE M 13 00:19:04 00:00:00 00:57:33 00:00:00 00:20:36 Triathlon M
0021 149 SEUWIN Paul ASTRE CREILLOIS 01:37:18 SE M 14 00:22:15 00:00:00 00:55:17 00:00:00 00:19:47 Triathlon M
0022 189 ROUBLIC Arnaud GRAVELINES TRIATHLON 01:38:32 SE M 15 00:20:24 00:00:00 00:55:42 00:00:00 00:22:27 Triathlon M
0023 269 TEMMERMAN Herve VILLENEUVE D ASCQ TRIATHLON 01:38:38 V3 M 1 00:18:00 00:00:00 00:59:14 00:00:00 00:21:25 Triathlon M
0024 261 SCOTT Mathieu TRIATHLON ORCHIES PEVELE 01:38:53 SE M 16 00:22:07 00:00:00 00:57:04 00:00:00 00:19:44 Triathlon M
0025 255 VANDAMME Fabien TRIATHLON LITTORAL 59 01:39:07 SE M 17 00:21:49 00:00:00 00:57:04 00:00:00 00:20:15 Triathlon M
0026 293 THOMASSIN Kevin ITU USA Federation 01:39:31 SE M 18 00:21:13 00:00:00 00:58:57 00:00:00 00:19:23 Triathlon M
0027 237 QUIQUET Christophe TRIATHLON CLUB BOULONNAIS 01:39:37 V3 M 2 00:22:48 00:00:00 00:54:45 00:00:00 00:22:04 Triathlon M
0028 270 HIDDEN Romain VILLENEUVE D ASCQ TRIATHLON 01:39:57 SE M 19 00:20:45 00:00:00 00:57:45 00:00:00 00:21:28 Triathlon M
0029 262 PATTYN Olivier TRIATHLON WEPPES FLANDRE LYS 01:40:28 V1 M 4 00:20:29 00:00:00 00:55:49 00:00:00 00:24:12 Triathlon M
0030 248 RICHARD Olivier TRIATHLON CLUB DE LIEVIN 01:40:29 V1 M 5 00:21:25 00:00:00 00:57:42 00:00:00 00:21:24 Triathlon M
0031 264 DUMORTIER Jerome TRIATHLON WEPPES FLANDRE LYS 01:40:30 SE M 20 00:22:31 00:00:00 00:57:30 00:00:00 00:20:30 Triathlon M
0032 206 DELEU Martin LILLE TRIATHLON 01:40:56 SE M 21 00:18:52 00:00:00 00:59:36 00:00:00 00:22:29 Triathlon M
0033 177 DESOEUVRE Damien E.S.M. GONFREVILLE L ORCHER 01:40:57 SE M 22 00:18:44 00:00:00 01:01:42 00:00:00 00:20:32 Triathlon M
0034 300 MICHEL Vivien 01:41:12 SE M 23 00:21:01 00:00:00 00:58:57 00:00:00 00:21:14 Triathlon M
0035 191 BRUNET Benjamin GRAVELINES TRIATHLON 01:41:19 SE M 24 00:21:10 00:00:00 00:58:46 00:00:00 00:21:24 Triathlon M
0036 216 DUCHATEAU Nordine LYS CALAIS TRIATHLON 01:41:36 SE M 25 00:22:19 00:00:00 00:57:55 00:00:00 00:21:23 Triathlon M
0037 170 DELEPINE Sebastien COTE D OPALE TRIATHLON CALAIS SAINT OMER 01:42:15 SE M 26 00:18:55 00:00:00 01:01:44 00:00:00 00:21:36 Triathlon M
0038 256 PLUY Patrick TRIATHLON LITTORAL 59 01:42:18 V3 M 3 00:23:19 00:00:00 00:57:01 00:00:00 00:21:58 Triathlon M
0039 305 CARSON Andrew ITU British Federation 01:42:30 SE M 27 00:20:51 00:00:00 01:00:09 00:00:00 00:21:30 Triathlon M
0040 201 LAVISSE Romain LILLE TRIATHLON 01:42:56 SE M 28 00:20:07 00:00:00 01:00:16 00:00:00 00:22:34 Triathlon M
0041 183 BEAURAIN Sylvain GRAVELINES TRIATHLON 01:43:15 SE M 29 00:20:16 00:00:00 00:59:35 00:00:00 00:23:26 Triathlon M
0042 217 POUTRAIN Kellig LYS CALAIS TRIATHLON 01:43:35 V1 M 6 00:21:23 00:00:00 01:00:03 00:00:00 00:22:10 Triathlon M
0043 306 DELEPINE Romain 01:43:58 SE M 30 00:17:08 00:00:00 01:01:09 00:00:00 00:25:42 Triathlon M
0044 173 STERIN Jean-stephane COTE D OPALE TRIATHLON CALAIS SAINT OMER 01:44:01 V2 M 3 00:22:56 00:00:00 00:58:05 00:00:00 00:23:01 Triathlon M
0045 154 COMYN Olivier BLANC NEZ TRIATHLON 62 01:44:22 SE M 31 00:17:44 00:00:00 01:01:33 00:00:00 00:25:06 Triathlon M
0046 213 DANEL Marc andre LYS CALAIS TRIATHLON 01:44:37 V3 M 4 00:22:41 00:00:00 01:00:35 00:00:00 00:21:22 Triathlon M
0047 277 GOURDIN Christian 01:44:51 V3 M 5 00:23:21 00:00:00 00:58:06 00:00:00 00:23:25 Triathlon M
0048 210 LECERF Laurent LYS CALAIS TRIATHLON 01:45:06 V2 M 4 00:20:51 00:00:00 01:01:17 00:00:00 00:22:59 Triathlon M
0049 324 CAPPELLE Manuel 01:45:23 V1 M 7 00:22:14 00:00:00 00:59:09 00:00:00 00:24:02 Triathlon M
0050 188 MARTEL Philippe GRAVELINES TRIATHLON 01:45:28 SE M 32 00:20:44 00:00:00 01:02:14 00:00:00 00:22:31 Triathlon M
0051 175 LECOCQ Pierre CUINCY TRIATHLON 01:45:33 SE M 33 00:21:23 00:00:00 01:01:14 00:00:00 00:22:56 Triathlon M
0052 347 MUYL Nicolas 01:45:46 SE M 34 00:20:58 00:00:00 01:03:20 00:00:00 00:21:29 Triathlon M
0053 214 BELLET Jean francois LYS CALAIS TRIATHLON 01:45:49 V2 M 5 00:23:16 00:00:00 00:59:07 00:00:00 00:23:28 Triathlon M
0054 265 LEGILLON Sylvain TRIATHLON WEPPES FLANDRE LYS 01:45:55 SE M 35 00:23:15 00:00:00 00:59:45 00:00:00 00:22:56 Triathlon M
0055 272 LESTAVEL Baptiste VILLENEUVE D ASCQ TRIATHLON 01:46:09 SE M 36 00:20:13 00:00:00 01:02:07 00:00:00 00:23:50 Triathlon M
0056 385 LEIGNEL Michel 01:46:23 V2 M 6 00:22:40 00:00:00 00:58:29 00:00:00 00:25:14 Triathlon M
0057 355 VANTIELCKE Cedric 01:46:23 SE M 37 00:24:03 00:00:00 00:57:33 00:00:00 00:24:48 Triathlon M
0058 221 BERNARD Thierry MCT/LA TERRE DES 2 CAPS 01:46:28 V2 M 7 00:20:59 00:00:00 01:00:20 00:00:00 00:25:10 Triathlon M
0059 317 MALIK Setifi 01:46:34 SE M 38 00:23:46 00:00:00 01:00:45 00:00:00 00:22:05 Triathlon M
0060 263 COCHIN Sebastien TRIATHLON WEPPES FLANDRE LYS 01:46:53 SE M 39 00:24:32 00:00:00 01:01:30 00:00:00 00:20:52 Triathlon M
0061 156 MADDI Farid CLUB LOISIRS LEO LAGRANGE 01:46:56 V3 M 6 00:20:45 00:00:00 01:01:21 00:00:00 00:24:51 Triathlon M
0062 152 RICHARD Sebastien BERCK OPALE SUD TRIATHLON 01:46:58 SE M 40 00:23:44 00:00:00 01:02:20 00:00:00 00:20:55 Triathlon M
0063 120 DROFIAK Sophie CLUB LOISIRS LEO LAGRANGE 01:47:01 SE F 1 00:17:24 00:00:00 01:06:29 00:00:00 00:23:09 Triathlon M
0064 260 VANDECASTEELE Arnaud TRIATHLON ORCHIES PEVELE 01:47:30 V1 M 8 00:20:08 00:00:00 01:02:16 00:00:00 00:25:06 Triathlon M
0065 138 DEBROUX Marie claude VALENCIENNES TRIATHLON 01:47:37 V3 F 1 00:22:07 00:00:00 01:02:21 00:00:00 00:23:10 Triathlon M
0066 140 DEBACQ Jimmy 01:47:43 SE M 41 00:21:06 00:00:00 01:04:59 00:00:00 00:21:39 Triathlon M
0067 258 THIBAUT Philippe TRIATHLON LITTORAL 59 01:48:02 V3 M 7 00:25:33 00:00:00 00:59:55 00:00:00 00:22:35 Triathlon M
0068 316 ROYEZ Benjamin 01:48:34 SE M 42 00:24:13 00:00:00 01:02:55 00:00:00 00:21:27 Triathlon M
0069 313 DERAMECOURT Germain 01:48:36 SE M 43 00:22:55 00:00:00 01:02:41 00:00:00 00:23:01 Triathlon M
0070 241 COURTOIS Ludovic TRIATHLON CLUB D`HAZEBROUCK 01:48:44 SE M 44 00:25:30 00:00:00 00:59:37 00:00:00 00:23:38 Triathlon M
0071 212 BRAZY Philippe LYS CALAIS TRIATHLON 01:49:05 V3 M 8 00:24:50 00:00:00 01:02:41 00:00:00 00:21:36 Triathlon M
0072 254 DUPAS Remy TRIATHLON LITTORAL 59 01:49:07 SE M 45 00:19:50 00:00:00 01:06:24 00:00:00 00:22:54 Triathlon M
0073 346 LEMAITRE Christophe 01:49:10 V2 M 8 00:25:22 00:00:00 01:00:58 00:00:00 00:22:52 Triathlon M
0074 137 GOLDMAN Perrine VALENCIENNES TRIATHLON 01:49:19 SE F 2 00:19:31 00:00:00 01:04:59 00:00:00 00:24:50 Triathlon M
0075 186 RICOUART Stephane GRAVELINES TRIATHLON 01:49:52 SE M 46 00:21:59 00:00:00 01:04:32 00:00:00 00:23:22 Triathlon M
0076 259 VISTOT Ludovic TRIATHLON LITTORAL 59 01:49:57 V3 M 9 00:21:52 00:00:00 01:02:55 00:00:00 00:25:11 Triathlon M
0077 239 PERRIN Frederic TRIATHLON CLUB BOULONNAIS 01:50:13 SE M 47 00:23:58 00:00:00 01:01:45 00:00:00 00:24:30 Triathlon M
0078 234 DOMINGUES Daniel TEAM TRIATHLON MAUBEUGE 01:50:33 V1 M 9 00:23:05 00:00:00 01:02:58 00:00:00 00:24:30 Triathlon M
0079 121 MADDI Elsa CLUB LOISIRS LEO LAGRANGE 01:50:50 SE F 3 00:20:47 00:00:00 01:05:47 00:00:00 00:24:17 Triathlon M
0080 328 TEMPERVILLE Roland xavier 01:51:08 SE M 48 00:24:32 00:00:00 01:04:05 00:00:00 00:22:32 Triathlon M
0081 174 ALLART Ludovic COTE D OPALE TRIATHLON CALAIS SAINT OMER 01:51:18 SE M 49 00:26:30 00:00:00 01:03:12 00:00:00 00:21:37 Triathlon M
0082 195 LECONTE Christian HALLUIN TRIATHLON 01:51:40 SE M 50 00:24:35 00:00:00 01:02:52 00:00:00 00:24:14 Triathlon M
0083 143 VANHERSECKE Hugues 01:51:45 SE F 4 00:22:44 00:00:00 01:06:23 00:00:00 00:22:39 Triathlon M
0084 240 DUSSART David TRIATHLON CLUB D`HAZEBROUCK 01:51:48 SE M 51 00:23:10 00:00:00 01:06:10 00:00:00 00:22:29 Triathlon M
0085 334 TURPIN Sylvain 01:51:50 SE M 52 00:23:35 00:00:00 01:05:44 00:00:00 00:22:32 Triathlon M
0086 169 DACQUIN Remy COTE D OPALE TRIATHLON CALAIS SAINT OMER 01:51:52 SE M 53 00:23:30 00:00:00 01:04:55 00:00:00 00:23:27 Triathlon M
0087 274 MONDON Pascal 01:51:53 V2 M 9 00:26:31 00:00:00 01:02:40 00:00:00 00:22:42 Triathlon M
0088 333 SAMELOT Antoine 01:51:58 SE M 54 00:22:34 00:00:00 01:01:54 00:00:00 00:27:32 Triathlon M
0089 187 HENEMAN Jean michel GRAVELINES TRIATHLON 01:52:04 V3 M 10 00:22:17 00:00:00 01:05:30 00:00:00 00:24:18 Triathlon M
0090 383 NOYELLE Merri 01:52:04 V1 M 10 00:23:07 00:00:00 01:04:11 00:00:00 00:24:48 Triathlon M
0091 192 BOUCHE Vincent HALLUIN TRIATHLON 01:52:12 V1 M 11 00:22:54 00:00:00 01:06:53 00:00:00 00:22:26 Triathlon M
0092 193 PENET Samuel HALLUIN TRIATHLON 01:52:12 V1 M 12 00:24:33 00:00:00 01:03:00 00:00:00 00:24:40 Triathlon M
0093 246 DEBAS Eric TRIATHLON CLUB DE LIEVIN 01:52:12 V3 M 11 00:23:24 00:00:00 01:03:08 00:00:00 00:25:42 Triathlon M
0094 151 BOGART Philippe ATHLETIC CLUB MARCQUOIS 01:52:14 V3 M 12 00:23:39 00:00:00 01:04:26 00:00:00 00:24:11 Triathlon M
0095 287 VIN Matthieu 01:52:19 SE M 55 00:25:52 00:00:00 00:00:00 00:00:00 00:00:00 Triathlon M
0096 326 LECOUTRE Romaric 01:52:28 SE M 56 00:18:13 00:00:00 01:06:36 00:00:00 00:27:41 Triathlon M
0097 268 CHALVIGNAC Jean pierre VALENCIENNES TRIATHLON 01:52:39 V3 M 13 00:26:46 00:00:00 01:03:07 00:00:00 00:22:47 Triathlon M
0098 332 LEBLANC Tanguy 01:52:58 SE M 57 00:21:41 00:00:00 01:05:49 00:00:00 00:25:29 Triathlon M
0099 157 MENARD Christian CLUB LOISIRS LEO LAGRANGE 01:52:59 V3 M 14 00:24:49 00:00:00 01:03:44 00:00:00 00:24:27 Triathlon M
0100 311 GUIDÉ Nicolas 01:53:13 SE M 58 00:26:05 00:00:00 01:05:05 00:00:00 00:22:04 Triathlon M
0101 271 FEUTRY Vincent VILLENEUVE D ASCQ TRIATHLON 01:53:18 SE M 59 00:23:59 00:00:00 01:04:17 00:00:00 00:25:03 Triathlon M
0102 382 CHAKER Lasser 01:53:20 V1 M 13 00:26:42 00:00:00 01:04:10 00:00:00 00:22:29 Triathlon M
0103 203 DELCAMBRE Alexis LILLE TRIATHLON 01:53:28 SE M 60 00:23:48 00:00:00 01:07:37 00:00:00 00:22:03 Triathlon M
0104 230 CAILLE Christian SKWAL ATHLON 01:53:33 V3 M 15 00:23:52 00:00:00 01:05:30 00:00:00 00:24:11 Triathlon M
0105 207 LEMAITRE Clement LILLE TRIATHLON 01:53:40 SE M 61 00:24:33 00:00:00 01:04:51 00:00:00 00:24:17 Triathlon M
0106 167 LEFRANCOIS Julien COTE D OPALE TRIATHLON CALAIS SAINT OMER 01:53:52 SE M 62 00:23:46 00:00:00 01:05:54 00:00:00 00:24:13 Triathlon M
0107 215 LEDOUX Loic LYS CALAIS TRIATHLON 01:53:58 SE M 63 00:23:05 00:00:00 01:04:46 00:00:00 00:26:07 Triathlon M
0108 245 VABOIS Mathieu TRIATHLON CLUB DE LIEVIN 01:53:59 SE M 64 00:26:12 00:00:00 01:04:55 00:00:00 00:22:53 Triathlon M
0109 288 PAUCHET Sebastien 01:54:13 SE M 65 00:25:11 00:00:00 01:05:21 00:00:00 00:23:41 Triathlon M
0110 155 COUPIN Wilfried BLANC NEZ TRIATHLON 62 01:54:20 SE M 66 00:22:42 00:00:00 01:06:25 00:00:00 00:25:15 Triathlon M
0111 198 BACCOU Jerome IRON TEAM SAINT AMAND 01:54:26 V1 M 14 00:27:46 00:00:00 01:02:35 00:00:00 00:24:06 Triathlon M
0112 387 BOURRADA Brahim 01:54:32 V3 M 16 00:24:05 00:00:00 01:07:45 00:00:00 00:22:43 Triathlon M
0113 150 FEUILLET Alexandre ATHLETIC CLUB MARCQUOIS 01:54:37 V1 M 15 00:25:34 00:00:00 01:05:49 00:00:00 00:23:15 Triathlon M
0114 161 VANDENBUSSCHE Jerome COTE D OPALE TRIATHLON CALAIS SAINT OMER 01:54:42 SE M 67 00:26:29 00:00:00 01:04:44 00:00:00 00:23:30 Triathlon M
0115 356 DHONDT Sylvain 01:55:04 V2 M 10 00:26:18 00:00:00 01:02:38 00:00:00 00:26:09 Triathlon M
0116 235 GIBON Frederic TEAM TRIATHLON MAUBEUGE 01:55:29 V3 M 17 00:22:26 00:00:00 01:10:14 00:00:00 00:22:49 Triathlon M
0117 357 VANHOUTTE Adrien 01:55:33 SE M 68 00:25:26 00:00:00 01:05:49 00:00:00 00:24:19 Triathlon M
0118 315 GARAS Bertrand 01:55:38 V3 M 18 00:20:49 00:00:00 01:07:35 00:00:00 00:27:14 Triathlon M
0119 325 DEGROOTE Yannick ITU Belgian Federation 01:55:45 V2 M 11 00:25:25 00:00:00 01:07:21 00:00:00 00:23:00 Triathlon M
0120 376 GALLET Jean michel TRIATHLON CLUB DE DOUAI 01:55:48 V2 M 12 00:23:09 00:00:00 01:07:22 00:00:00 00:25:19 Triathlon M
0121 228 PASQUER Pascal O.S.M.L. NATATION-TRIATHLON 01:56:05 V3 M 19 00:23:18 00:00:00 01:07:19 00:00:00 00:25:29 Triathlon M
0122 220 CARPENTIER Thierry MCT/LA TERRE DES 2 CAPS 01:56:09 V2 M 13 00:25:40 00:00:00 01:06:55 00:00:00 00:23:35 Triathlon M
0123 227 SONNEVILLE Mickael O.S.M.L. NATATION-TRIATHLON 01:56:13 V1 M 16 00:23:53 00:00:00 01:08:44 00:00:00 00:23:37 Triathlon M
0124 232 NEMPON Daniel SKWAL ATHLON 01:56:34 V2 M 14 00:30:04 00:00:00 01:03:17 00:00:00 00:23:13 Triathlon M
0125 249 DELBARRE Frederic TRIATHLON CLUB DE LIEVIN 01:56:54 V1 M 17 00:24:39 00:00:00 01:09:32 00:00:00 00:22:44 Triathlon M
0126 148 POUTRAIN Claire 01:56:57 V1 F 1 00:22:05 00:00:00 01:07:50 00:00:00 00:27:02 Triathlon M
0127 147 NIXON Annette 01:57:04 V2 F 1 00:20:41 00:00:00 01:08:58 00:00:00 00:27:26 Triathlon M
0128 353 DAVID Fabrice 01:57:06 V3 M 20 00:23:42 00:00:00 01:05:57 00:00:00 00:27:28 Triathlon M
0129 131 WARGNEZ Anne lise LILLE TRIATHLON 01:57:10 SE F 5 00:22:01 00:00:00 01:08:09 00:00:00 00:27:02 Triathlon M
0130 118 GARENEAUX Charlotte CLUB LOISIRS LEO LAGRANGE 01:57:11 SE F 6 00:22:47 00:00:00 01:06:55 00:00:00 00:27:30 Triathlon M
0131 127 DUREZ Erwina GRAVELINES TRIATHLON 01:57:48 SE F 7 00:18:13 00:00:00 01:12:53 00:00:00 00:26:43 Triathlon M
0132 295 LE BOVIC Paul ITU USA Federation 01:58:11 SE M 69 00:24:25 00:00:00 01:07:08 00:00:00 00:26:39 Triathlon M
0133 289 LOOR Nicolas 01:58:14 SE M 70 00:25:12 00:00:00 01:09:11 00:00:00 00:23:52 Triathlon M
0134 309 CAMPAGNE Geoffrey 01:58:22 SE M 71 00:25:45 00:00:00 01:06:56 00:00:00 00:25:41 Triathlon M
0135 208 LECLERCQ Maxence LILLE TRIATHLON 01:58:31 V1 M 18 00:21:07 00:00:00 01:08:10 00:00:00 00:29:16 Triathlon M
0136 381 HALTZ Laurent 01:58:35 V3 M 21 00:20:02 00:00:00 01:11:32 00:00:00 00:27:02 Triathlon M
0137 278 PARENT Pascal 01:58:57 V3 M 22 00:23:25 00:00:00 01:07:10 00:00:00 00:28:23 Triathlon M
0138 136 BAELEN Delphine SKWAL ATHLON 01:59:16 V1 F 2 00:26:26 00:00:00 01:07:08 00:00:00 00:25:43 Triathlon M
0139 303 BARRAS Romain 02:00:13 SE M 72 00:26:27 00:00:00 01:09:14 00:00:00 00:24:33 Triathlon M
0140 194 VANDENHENDE Benoit HALLUIN TRIATHLON 02:00:36 V1 M 19 00:22:45 00:00:00 01:09:41 00:00:00 00:28:11 Triathlon M
0141 307 COLEAU Bertrand 02:00:42 V1 M 20 00:25:17 00:00:00 01:11:44 00:00:00 00:23:42 Triathlon M
0142 380 BELLU Salvatore 02:00:56 V3 M 23 00:25:51 00:00:00 01:10:02 00:00:00 00:25:04 Triathlon M
0143 337 VANHILLE Yann 02:01:04 V1 M 21 00:24:38 00:00:00 01:07:39 00:00:00 00:28:47 Triathlon M
0144 284 LOGIE Michael 02:01:06 SE M 73 00:25:08 00:00:00 01:12:00 00:00:00 00:23:58 Triathlon M
0145 145 DEJONGHE Aurelie ITU Belgian Federation 02:01:18 SE F 8 00:23:08 00:00:00 01:12:43 00:00:00 00:25:28 Triathlon M
0146 166 LAURENTIE Yann COTE D OPALE TRIATHLON CALAIS SAINT OMER 02:01:31 V1 M 22 00:24:22 00:00:00 01:12:41 00:00:00 00:24:30 Triathlon M
0147 182 RIBERY Sebastien GRAVELINES TRIATHLON 02:01:33 V1 M 23 00:26:28 00:00:00 01:08:48 00:00:00 00:26:17 Triathlon M
0148 134 OHMANN Anne valerie O.S.M.L. NATATION-TRIATHLON 02:01:53 V3 F 2 00:23:10 00:00:00 01:09:20 00:00:00 00:29:24 Triathlon M
0149 132 LESTOILLE Veronique LYS CALAIS TRIATHLON 02:01:58 V3 F 3 00:27:17 00:00:00 01:10:04 00:00:00 00:24:38 Triathlon M
0150 117 AUCH Sophie BLANC NEZ TRIATHLON 62 02:02:12 SE F 9 00:27:37 00:00:00 01:06:59 00:00:00 00:27:37 Triathlon M
0151 153 VIVIEZ Vincent BLANC NEZ TRIATHLON 62 02:02:22 SE M 74 00:25:21 00:00:00 01:11:00 00:00:00 00:26:02 Triathlon M
0152 128 LYSENSOONE Henri 02:03:40 V3 M 24 00:29:47 00:00:00 01:16:51 00:00:00 00:17:03 Triathlon M
0153 125 LARUE Virginie GRAVELINES TRIATHLON 02:04:07 V1 F 3 00:23:54 00:00:00 01:14:28 00:00:00 00:25:46 Triathlon M
0154 190 MAILLET David GRAVELINES TRIATHLON 02:04:22 V1 M 24 00:25:28 00:00:00 01:08:41 00:00:00 00:30:15 Triathlon M
0155 226 CHIEUX Emmanuel O.S.M.L. NATATION-TRIATHLON 02:04:44 V3 M 25 00:25:13 00:00:00 01:08:07 00:00:00 00:31:25 Triathlon M
0156 199 RADOVANOVIC Ivan IRON TEAM SAINT AMAND 02:04:54 V2 M 15 00:26:35 00:00:00 01:11:03 00:00:00 00:27:17 Triathlon M
0157 231 BOUCHIQUET Pascal SKWAL ATHLON 02:04:57 V3 M 26 00:25:03 00:00:00 01:10:03 00:00:00 00:29:52 Triathlon M
0158 348 EMPIS Sébastien 02:05:19 V1 M 25 00:31:19 00:00:00 01:08:04 00:00:00 00:25:57 Triathlon M
0159 336 DENEUWELAERE Ludovic 02:05:52 V2 M 16 00:23:06 00:00:00 01:12:22 00:00:00 00:30:25 Triathlon M
0160 164 DUFOUR Alain COTE D OPALE TRIATHLON CALAIS SAINT OMER 02:06:15 V3 M 27 00:22:25 00:00:00 01:12:43 00:00:00 00:31:08 Triathlon M
0161 130 GORISSE Noemie LILLE TRIATHLON 02:06:20 SE F 10 00:26:57 00:00:00 01:14:18 00:00:00 00:25:06 Triathlon M
0162 202 MOTTE Axel LILLE TRIATHLON 02:06:28 SE M 75 00:29:01 00:00:00 01:11:12 00:00:00 00:26:17 Triathlon M
0163 323 MACHADO Jeremie 02:06:33 V1 M 26 00:26:28 00:00:00 01:14:28 00:00:00 00:25:38 Triathlon M
0164 139 MASSON Isabelle ITU Belgian Federation 02:07:00 V2 F 2 00:25:33 00:00:00 01:12:25 00:00:00 00:29:03 Triathlon M
0165 146 TANIA JACKSON Ms ITU British Federation 02:07:01 V2 F 3 00:29:31 00:00:00 01:23:14 00:00:00 00:14:17 Triathlon M
0166 222 VIEREN Franck O.S.M.L. NATATION-TRIATHLON 02:07:09 V1 M 27 00:25:30 00:00:00 01:16:56 00:00:00 00:24:44 Triathlon M
0167 308 MICHEL Julien 02:07:13 V1 M 28 00:28:31 00:00:00 01:14:07 00:00:00 00:24:37 Triathlon M
0168 310 TAVERNE Jérémie 02:07:38 SE M 76 00:26:44 00:00:00 01:12:53 00:00:00 00:28:02 Triathlon M
0169 320 DEHAUDT Johnny 02:07:41 SE M 77 00:30:22 00:00:00 01:12:35 00:00:00 00:24:44 Triathlon M
0170 292 BOBET Vladimir 02:07:42 SE M 78 00:24:51 00:00:00 01:17:48 00:00:00 00:25:04 Triathlon M
0171 352 BONDUAU Sébastien 02:07:43 V1 M 29 00:31:12 00:00:00 01:11:45 00:00:00 00:24:48 Triathlon M
0172 135 BUISINE BOUCHIQUET Sylvie SKWAL ATHLON 02:07:50 V3 F 4 00:27:12 00:00:00 01:10:53 00:00:00 00:29:46 Triathlon M
0173 204 KIEHLMANN Fabian LILLE TRIATHLON 02:08:20 SE M 79 00:27:51 00:00:00 01:14:53 00:00:00 00:25:37 Triathlon M
0174 331 FONTAINE José 02:08:22 V3 M 28 00:23:44 00:00:00 01:12:59 00:00:00 00:31:40 Triathlon M
0175 297 SZWIERGOTT Etienne 02:08:29 V3 M 29 00:23:43 00:00:00 01:15:30 00:00:00 00:29:17 Triathlon M
0176 184 MAILLET Vincent GRAVELINES TRIATHLON 02:08:48 V1 M 30 00:23:01 00:00:00 01:21:31 00:00:00 00:24:16 Triathlon M
0177 312 MAQUINGHEN Francois 02:09:09 V2 M 17 00:25:11 00:00:00 01:13:55 00:00:00 00:30:05 Triathlon M
0178 242 CUCUZZELLA Fabrice TRIATHLON CLUB DE DOUAI 02:09:12 V1 M 31 00:23:20 00:00:00 01:15:37 00:00:00 00:30:17 Triathlon M
0179 290 JUMEAU Vincent 02:09:14 V1 M 32 00:26:20 00:00:00 01:15:15 00:00:00 00:27:40 Triathlon M
0180 244 SIX Jean louis TRIATHLON CLUB DE DOUAI 02:09:53 V3 M 30 00:30:17 00:00:00 01:11:44 00:00:00 00:27:53 Triathlon M
0181 238 MELMIES Jocelyn TRIATHLON CLUB BOULONNAIS 02:09:57 V3 M 31 00:27:25 00:00:00 01:14:15 00:00:00 00:28:18 Triathlon M
0182 343 VANDAMME Patrick 02:10:03 V3 M 32 00:29:58 00:00:00 01:11:05 00:00:00 00:29:01 Triathlon M
0183 340 DELAVAL Bastien 02:10:39 SE M 80 00:28:42 00:00:00 01:14:07 00:00:00 00:27:51 Triathlon M
0184 296 GUILLEMANT Vincent 02:11:30 SE M 81 00:34:31 00:00:00 01:11:54 00:00:00 00:25:06 Triathlon M
0185 358 ARMIGNIES Philippe 02:11:40 V3 M 33 00:26:54 00:00:00 01:13:58 00:00:00 00:30:48 Triathlon M
0186 314 COLLANGE Sebastien 02:11:40 V1 M 33 00:26:11 00:00:00 01:17:12 00:00:00 00:28:18 Triathlon M
0187 338 COURTOIS Eric 02:14:09 SE M 82 00:25:47 00:00:00 01:19:45 00:00:00 00:28:37 Triathlon M
0188 273 DEBAEKE Cliff 02:14:53 SE M 83 00:41:53 00:00:00 01:18:03 00:00:00 00:14:58 Triathlon M
0189 180 THORISSON Thorir orn GRAVELINES TRIATHLON 02:15:34 V2 M 18 00:29:20 00:00:00 01:17:19 00:00:00 00:28:56 Triathlon M
0190 129 VANDUYFHUYS Lucie LILLE TRIATHLON 02:15:47 SE F 11 00:26:45 00:00:00 01:22:05 00:00:00 00:26:58 Triathlon M
0191 285 CABUZEL Sebastien 02:16:03 SE M 84 00:34:22 00:00:00 01:10:37 00:00:00 00:31:05 Triathlon M
0192 122 VANDENBUSSCHE Coralie COTE D OPALE TRIATHLON CALAIS SAINT OMER 02:16:09 SE F 12 00:25:12 00:00:00 01:20:40 00:00:00 00:30:18 Triathlon M
0193 243 QUERUEL Cyrille TRIATHLON CLUB DE DOUAI 02:16:22 V1 M 34 00:30:28 00:00:00 01:15:17 00:00:00 00:30:38 Triathlon M
0194 144 VASSELLE Cynthia 02:17:15 SE F 13 00:20:33 00:00:00 01:23:09 00:00:00 00:33:34 Triathlon M
0195 286 HUTEAU Sebastien 02:17:59 V2 M 19 00:25:05 00:00:00 01:22:12 00:00:00 00:30:43 Triathlon M
0196 302 DENIZOT Vincent 02:18:06 SE M 85 00:24:32 00:00:00 01:29:39 00:00:00 00:23:56 Triathlon M
0197 223 DEPREZ Nicolas O.S.M.L. NATATION-TRIATHLON 02:18:06 V1 M 35 00:26:22 00:00:00 01:19:36 00:00:00 00:32:09 Triathlon M
0198 345 MELCHIOR Sebastien 02:20:05 SE M 86 00:20:55 00:00:00 01:32:04 00:00:00 00:27:07 Triathlon M
0199 126 LABYT Patricia GRAVELINES TRIATHLON 02:20:27 V2 F 4 00:26:40 00:00:00 01:21:08 00:00:00 00:32:39 Triathlon M
0200 123 DACQUIN Jessie COTE D OPALE TRIATHLON CALAIS SAINT OMER 02:20:40 SE F 14 00:27:15 00:00:00 01:20:46 00:00:00 00:32:40 Triathlon M
0201 329 LE SAUX Jean-charles 02:21:31 SE M 87 00:23:29 00:00:00 01:25:19 00:00:00 00:32:43 Triathlon M
0202 350 FOURNIER Sébastien ITU USA Federation 02:22:17 V1 M 36 00:30:11 00:00:00 01:21:16 00:00:00 00:30:51 Triathlon M
0203 236 MONTIGAUD Philippe TOBESPORT 02:23:05 V3 M 34 00:27:35 00:00:00 01:23:05 00:00:00 00:32:26 Triathlon M
0204 133 BELLET Ana LYS CALAIS TRIATHLON 02:23:15 V3 F 5 00:34:28 00:00:00 01:29:22 00:00:00 00:19:27 Triathlon M
0205 327 DUTHILLEUL David 02:23:48 V2 M 20 00:28:50 00:00:00 01:19:10 00:00:00 00:35:50 Triathlon M
0206 319 LAITHIER Sébastien 02:24:24 SE M 88 00:31:35 00:00:00 01:21:40 00:00:00 00:31:11 Triathlon M
0207 318 SAILLY Mickaël 02:27:34 SE M 89 00:26:51 00:00:00 01:30:52 00:00:00 00:29:52 Triathlon M
0208 344 NIXON Nathan 02:28:26 V2 M 21 00:27:45 00:00:00 01:22:52 00:00:00 00:37:51 Triathlon M
0209 275 BOUILLON Thierry 02:28:44 V3 M 35 00:35:07 00:00:00 01:20:07 00:00:00 00:33:31 Triathlon M
0210 124 PAPADIA Elisa CUINCY TRIATHLON 02:29:20 SE F 15 00:27:55 00:00:00 01:25:01 00:00:00 00:36:25 Triathlon M
0211 178 GAMBLIN Michael GRAVELINES TRIATHLON 02:37:31 V1 M 37 00:34:09 00:00:00 01:27:06 00:00:00 00:36:17 Triathlon M
0212 298 LEFEBVRE Pierre-antoine 02:39:26 SE M 90 00:26:35 00:00:00 01:43:04 00:00:00 00:29:48 Triathlon M
0213 304 PAULET Fabien 02:46:55 SE M 91 00:29:03 00:00:00 01:41:07 00:00:00 00:36:46 Triathlon M
0214 141 DECOTTIGNIES Isabelle VILLENEUVE D ASCQ TRIATHLON 02:50:50 V1 F 4 00:30:17 00:00:00 01:38:50 00:00:00 00:41:44 Triathlon M
0215 142 COTTERET DELRUE Virginie 02:52:27 V1 F 5 00:31:52 00:00:00 01:43:53 00:00:00 00:36:43 Triathlon M
0216 281 MASSON Franck ITU Belgian Federation 02:55:52 V2 M 22 00:20:44 00:00:00 00:00:00 00:00:00 00:00:00 Triathlon M
0217 196 CORDIEZ Beniot 02:58:33 SE M 92 00:28:08 00:00:00 01:37:45 00:00:00 00:52:41 Triathlon M
DNF 171 EVRARD Christophe COTE D OPALE TRIATHLON CALAIS SAINT OMER 00:00:00 V2 M 0 00:00:00 00:00:00 00:00:00 00:00:00 00:00:00 Triathlon M
DNF 233 BILLIN Eddy SKWAL ATHLON 00:00:00 V1 M 0 00:00:00 00:00:00 00:00:00 00:00:00 00:00:00 Triathlon M
DNF 351 LENGLET Morgan 00:00:00 SE M 0 00:00:00 00:00:00 00:00:00 00:00:00 00:00:00 Triathlon M
DNF 158 HARZIG Maxime CLUB LOISIRS LEO LAGRANGE 00:00:00 SE M 0 00:16:19 00:00:00 00:00:00 00:00:00 00:00:00 Triathlon M
DNF 160 CAMBRE David CLUB LOISIRS LEO LAGRANGE 00:00:00 V1 M 0 00:17:57 00:00:00 00:00:00 00:00:00 00:00:00 Triathlon M
DNF 342 SIMON Claude ITU Belgian Federation 00:00:00 V2 M 0 00:18:46 00:00:00 00:00:00 00:00:00 00:00:00 Triathlon M
DNF 119 LECHIEN Justine CLUB LOISIRS LEO LAGRANGE 00:00:00 SE F 0 00:19:30 00:00:00 00:00:00 00:00:00 00:00:00 Triathlon M
DNF 179 HAUW Gregory GRAVELINES TRIATHLON 00:00:00 SE M 0 00:20:04 00:00:00 00:00:00 00:00:00 00:00:00 Triathlon M
DNF 176 BRULANT Steve E.C. SARTROUVILLE 00:00:00 SE M 0 00:20:27 00:00:00 00:00:00 00:00:00 00:00:00 Triathlon M
DNF 322 DEWAELE Michel TRIATHLON LITTORAL 59 00:00:00 V3 M 0 00:21:42 00:00:00 00:00:00 00:00:00 00:00:00 Triathlon M
DNF 282 CACHERA Aurelien ITU USA Federation 00:00:00 SE M 0 00:22:36 00:00:00 00:00:00 00:00:00 00:00:00 Triathlon M
DNF 335 BUSSON Elie 00:00:00 SE M 0 00:22:39 00:00:00 00:00:00 00:00:00 00:00:00 Triathlon M
DNF 257 MARCANT Laurent TRIATHLON LITTORAL 59 00:00:00 V1 M 0 00:23:13 00:00:00 00:00:00 00:00:00 00:00:00 Triathlon M
DNF 218 VILLEMANT Marc antoine LYS CALAIS TRIATHLON 00:00:00 V1 M 0 00:23:14 00:00:00 00:00:00 00:00:00 00:00:00 Triathlon M
DNF 211 AGNERAY Stephane LYS CALAIS TRIATHLON 00:00:00 SE M 0 00:23:49 00:00:00 00:00:00 00:00:00 00:00:00 Triathlon M
DNF 283 VIGREUX Maxime 00:00:00 SE M 0 00:28:56 00:00:00 00:00:00 00:00:00 00:00:00 Triathlon M
DNF 209 TRINQUET Luc LYS CALAIS TRIATHLON 00:00:00 V2 M 0 00:57:48 00:00:00 00:00:00 00:00:00 00:00:00 Triathlon M
DNF 185 QUEVAL Remi GRAVELINES TRIATHLON 00:00:00 SE M 0 00:18:19 00:00:00 00:59:48 00:00:00 00:00:00 Triathlon M
DNF 301 NOEL Nicolas 00:00:00 SE M 0 00:24:07 00:00:00 01:31:52 00:00:00 00:00:00 Triathlon M
DNS 162 TILLOY Raphael COTE D OPALE TRIATHLON CALAIS SAINT OMER 00:00:00 V1 M 0 00:00:00 00:00:00 00:00:00 00:00:00 00:00:00 Triathlon M
DNS 168 WATTEZ Maxime COTE D OPALE TRIATHLON CALAIS SAINT OMER 00:00:00 SE M 0 00:00:00 00:00:00 00:00:00 00:00:00 00:00:00 Triathlon M
DNS 197 LOZIER David IRON TEAM SAINT AMAND 00:00:00 V1 M 0 00:00:00 00:00:00 00:00:00 00:00:00 00:00:00 Triathlon M
DNS 219 LE PONNER Christophe LYS CALAIS TRIATHLON 00:00:00 V1 M 0 00:00:00 00:00:00 00:00:00 00:00:00 00:00:00 Triathlon M
DNS 224 DARTOIS Regis O.S.M.L. NATATION-TRIATHLON 00:00:00 V2 M 0 00:00:00 00:00:00 00:00:00 00:00:00 00:00:00 Triathlon M
DNS 266 VENDAN BORIN Sebastien TUC TRIATHLON 00:00:00 SE M 0 00:00:00 00:00:00 00:00:00 00:00:00 00:00:00 Triathlon M
DNS 280 MACLET Benoit 00:00:00 V2 M 0 00:00:00 00:00:00 00:00:00 00:00:00 00:00:00 Triathlon M
DNS 291 BLANGIS Fabien 00:00:00 SE M 0 00:00:00 00:00:00 00:00:00 00:00:00 00:00:00 Triathlon M
DNS 294 RIVIERE Olivier 00:00:00 V3 M 0 00:00:00 00:00:00 00:00:00 00:00:00 00:00:00 Triathlon M
DNS 349 JIMMY Debacq ITU Belgian Federation 00:00:00 SE M 0 00:00:00 00:00:00 00:00:00 00:00:00 00:00:00 Triathlon M


Triathlon M Relais
Scratch Nom Prénom Club Temps Cat. Clt. Cat. Nat. #1 Vélo #2 CaP ... Course
0001 386 DUEZ . 01:28:19 SE M 1 00:17:02 00:00:00 00:53:40 00:00:00 00:17:39 Triathlon M Relais
0002 398 Q POWERS . TRIATHLON CLUB DE LIEVIN 01:29:04 SE M 2 00:16:56 00:00:00 00:54:48 00:00:00 00:17:21 Triathlon M Relais
0003 397 TRIO INFERNAL . VILLENEUVE D ASCQ TRIATHLON 01:31:21 SE M 3 00:19:39 00:00:00 00:50:12 00:00:00 00:21:31 Triathlon M Relais
0004 365 LES CADETS DU LYS . LYS CALAIS TRIATHLON 01:32:19 SE X 1 00:17:26 00:00:00 00:55:39 00:00:00 00:19:15 Triathlon M Relais
0005 369 LES SERQUOIS . COTE D OPALE TRIATHLON CALAIS SAINT OMER 01:35:23 SE M 4 00:18:36 00:00:00 00:56:35 00:00:00 00:20:14 Triathlon M Relais
0006 371 BRAZBRAZINE . 01:40:40 SE X 2 00:22:02 00:00:00 00:58:05 00:00:00 00:20:34 Triathlon M Relais
0007 388 LES 3 PETITS COCHONS . GRAVELINES TRIATHLON 01:41:27 SE M 5 00:22:28 00:00:00 00:59:40 00:00:00 00:19:20 Triathlon M Relais
0008 363 2B&C . COTE D OPALE TRIATHLON CALAIS SAINT OMER 01:41:33 SE X 3 00:19:39 00:00:00 01:00:25 00:00:00 00:21:30 Triathlon M Relais
0009 367 MARCK'ATLON ONE . LYS CALAIS TRIATHLON 01:46:28 SE X 4 00:23:12 00:00:00 01:00:22 00:00:00 00:22:54 Triathlon M Relais
0010 390 FEUFOLLET TEAM . BLANC NEZ TRIATHLON 62 01:46:29 SE X 5 00:27:34 00:00:00 00:54:11 00:00:00 00:24:44 Triathlon M Relais
0011 372 LES GAZELLES . TRIATHLON LITTORAL 59 01:47:06 SE F 1 00:19:24 00:00:00 01:04:58 00:00:00 00:22:45 Triathlon M Relais
0012 389 BLANC NEZ TRIATHLON . BLANC NEZ TRIATHLON 62 01:47:58 SE X 6 00:22:40 00:00:00 01:02:33 00:00:00 00:22:46 Triathlon M Relais
0013 374 LES FACOCHERES . 01:48:47 SE M 6 00:25:09 00:00:00 01:03:41 00:00:00 00:19:58 Triathlon M Relais
0014 362 LDF . 01:50:51 SE X 7 00:26:33 00:00:00 01:02:50 00:00:00 00:21:30 Triathlon M Relais
0015 375 LES TOURISTES . COTE D OPALE TRIATHLON CALAIS SAINT OMER 01:52:29 SE F 2 00:19:33 00:00:00 01:09:53 00:00:00 00:23:04 Triathlon M Relais
0016 368 CUCHE FAMILLY . LYS CALAIS TRIATHLON 01:52:34 SE X 8 00:17:58 00:00:00 01:01:27 00:00:00 00:33:10 Triathlon M Relais
0017 396 TEAM RAC . RONCHIN ATHLETIC CLUB 01:55:13 SE X 9 00:25:14 00:00:00 01:05:17 00:00:00 00:24:43 Triathlon M Relais
0018 378 BNTEAM . BLANC NEZ TRIATHLON 62 01:55:21 SE X 10 00:25:49 00:00:00 01:08:28 00:00:00 00:21:05 Triathlon M Relais
0019 364 LES CINQUANTIEMES RUGISSANTS . 01:55:44 SE M 7 00:26:33 00:00:00 01:03:49 00:00:00 00:25:24 Triathlon M Relais
0020 400 ROBERT QUANDAL DELIENCOURT . 01:55:50 SE M 8 00:25:31 00:00:00 01:04:43 00:00:00 00:25:37 Triathlon M Relais
0021 377 CELOU JO BENJ . 01:57:09 SE M 9 00:22:27 00:00:00 01:11:07 00:00:00 00:23:36 Triathlon M Relais
0022 395 JCQ RELAY TRIATHLETS . 02:00:26 SE M 10 00:31:28 00:00:00 01:07:45 00:00:00 00:21:14 Triathlon M Relais
0023 359 MOREAU LEVEL COEUGNET . 02:01:32 SE M 11 00:35:43 00:00:00 01:04:42 00:00:00 00:21:09 Triathlon M Relais
0024 393 LES CHORIZOS . 02:03:46 SE M 12 00:32:08 00:00:00 01:10:07 00:00:00 00:21:32 Triathlon M Relais
0025 373 LES GIRLIES . 02:04:45 SE F 3 00:25:08 00:00:00 01:12:53 00:00:00 00:26:44 Triathlon M Relais
0026 370 LES FLECHES . 02:07:15 SE F 4 00:22:18 00:00:00 01:13:58 00:00:00 00:31:00 Triathlon M Relais
0027 379 T2CAP . 02:07:51 SE X 11 00:28:46 00:00:00 01:11:45 00:00:00 00:27:21 Triathlon M Relais
0028 391 TEAM BCA . 02:08:30 SE M 13 00:35:30 00:00:00 01:11:52 00:00:00 00:21:09 Triathlon M Relais
0029 392 TEAM ? . 02:10:54 V1 M 1 00:30:47 00:00:00 01:13:59 00:00:00 00:26:09 Triathlon M Relais
0030 361 VIVE LE RELAIS . BLANC NEZ TRIATHLON 62 02:11:43 SE X 12 00:32:35 00:00:00 01:08:51 00:00:00 00:30:17 Triathlon M Relais
0031 394 TEAM PAT . 02:13:28 SE M 14 00:42:54 00:00:00 01:06:38 00:00:00 00:23:57 Triathlon M Relais
DNF 366 LES JUNIORS DU LYS . LYS CALAIS TRIATHLON 00:00:00 SE M 0 00:19:25 00:00:00 00:00:00 00:00:00 00:00:00 Triathlon M Relais
DNF 360 DECOBIKE . 00:00:00 SE M 0 00:21:46 00:00:00 00:00:00 00:00:00 00:00:00 Triathlon M Relais
DNS 399 ORGANISATEUR 1 . 00:00:00 SE M 0 00:00:00 00:00:00 00:00:00 00:00:00 00:00:00 Triathlon M Relais
DNS 3591 MOREAU Jf 00:00:00 SE M 0 00:00:00 00:00:00 00:00:00 00:00:00 00:00:00 Triathlon M Relais
DNS 3592 LEVEL Eddy 00:00:00 V1 M 0 00:00:00 00:00:00 00:00:00 00:00:00 00:00:00 Triathlon M Relais
DNS 3593 COEUGNET Manuel 00:00:00 V1 M 0 00:00:00 00:00:00 00:00:00 00:00:00 00:00:00 Triathlon M Relais
DNS 3601 VASSEUR Thierry 00:00:00 V2 M 0 00:00:00 00:00:00 00:00:00 00:00:00 00:00:00 Triathlon M Relais
DNS 3602 DUFOUR Olivier 00:00:00 V1 M 0 00:00:00 00:00:00 00:00:00 00:00:00 00:00:00 Triathlon M Relais
DNS 3603 BOURY Johanneau 00:00:00 SE M 0 00:00:00 00:00:00 00:00:00 00:00:00 00:00:00 Triathlon M Relais
DNS 3611 DESOMBRE Aurélie 00:00:00 V1 F 0 00:00:00 00:00:00 00:00:00 00:00:00 00:00:00 Triathlon M Relais
DNS 3612 DESOMBRE Fabrice 00:00:00 V1 M 0 00:00:00 00:00:00 00:00:00 00:00:00 00:00:00 Triathlon M Relais
DNS 3613 LOISON Valerie BLANC NEZ TRIATHLON 62 00:00:00 V1 F 0 00:00:00 00:00:00 00:00:00 00:00:00 00:00:00 Triathlon M Relais
DNS 3621 ANDRAUD Léa 00:00:00 JU F 0 00:00:00 00:00:00 00:00:00 00:00:00 00:00:00 Triathlon M Relais
DNS 3622 GILLET Damien 00:00:00 V1 M 0 00:00:00 00:00:00 00:00:00 00:00:00 00:00:00 Triathlon M Relais
DNS 3623 GIROUD Franck 00:00:00 V2 M 0 00:00:00 00:00:00 00:00:00 00:00:00 00:00:00 Triathlon M Relais
DNS 3631 BOUDIER Sabine COTE D OPALE TRIATHLON CALAIS SAINT OMER 00:00:00 V1 F 0 00:00:00 00:00:00 00:00:00 00:00:00 00:00:00 Triathlon M Relais
DNS 3632 BOUDIER Stephane COTE D OPALE TRIATHLON CALAIS SAINT OMER 00:00:00 V1 M 0 00:00:00 00:00:00 00:00:00 00:00:00 00:00:00 Triathlon M Relais
DNS 3633 CISSE Anthony COTE D OPALE TRIATHLON CALAIS SAINT OMER 00:00:00 SE M 0 00:00:00 00:00:00 00:00:00 00:00:00 00:00:00 Triathlon M Relais
DNS 3641 WARIN Patrick 00:00:00 V3 M 0 00:00:00 00:00:00 00:00:00 00:00:00 00:00:00 Triathlon M Relais
DNS 3642 QUANDALLE Christophe 00:00:00 V3 M 0 00:00:00 00:00:00 00:00:00 00:00:00 00:00:00 Triathlon M Relais
DNS 3643 POULAIN Patrice 00:00:00 V3 M 0 00:00:00 00:00:00 00:00:00 00:00:00 00:00:00 Triathlon M Relais
DNS 3651 LUCAS Rebecca LYS CALAIS TRIATHLON 00:00:00 CA F 0 00:00:00 00:00:00 00:00:00 00:00:00 00:00:00 Triathlon M Relais
DNS 3652 BARTHELEMY Killian LYS CALAIS TRIATHLON 00:00:00 CA M 0 00:00:00 00:00:00 00:00:00 00:00:00 00:00:00 Triathlon M Relais
DNS 3653 PERARD Marin LYS CALAIS TRIATHLON 00:00:00 CA M 0 00:00:00 00:00:00 00:00:00 00:00:00 00:00:00 Triathlon M Relais
DNS 3661 BERTIN Thomas LYS CALAIS TRIATHLON 00:00:00 JU M 0 00:00:00 00:00:00 00:00:00 00:00:00 00:00:00 Triathlon M Relais
DNS 3662 TAILLIEZ Quentin LYS CALAIS TRIATHLON 00:00:00 CA M 0 00:00:00 00:00:00 00:00:00 00:00:00 00:00:00 Triathlon M Relais
DNS 3663 MARLARD Axel LYS CALAIS TRIATHLON 00:00:00 CA M 0 00:00:00 00:00:00 00:00:00 00:00:00 00:00:00 Triathlon M Relais
DNS 3671 DESENCLOS Jean pierre LYS CALAIS TRIATHLON 00:00:00 V3 M 0 00:00:00 00:00:00 00:00:00 00:00:00 00:00:00 Triathlon M Relais
DNS 3672 VISTE Philippe 00:00:00 SE M 0 00:00:00 00:00:00 00:00:00 00:00:00 00:00:00 Triathlon M Relais
DNS 3673 DUBOS Virginie 00:00:00 V1 F 0 00:00:00 00:00:00 00:00:00 00:00:00 00:00:00 Triathlon M Relais
DNS 3681 CUCHEVAL Samuel LYS CALAIS TRIATHLON 00:00:00 V1 M 0 00:00:00 00:00:00 00:00:00 00:00:00 00:00:00 Triathlon M Relais
DNS 3682 CUCHEVAL Yannick LYS CALAIS TRIATHLON 00:00:00 V2 M 0 00:00:00 00:00:00 00:00:00 00:00:00 00:00:00 Triathlon M Relais
DNS 3683 CUCHEVAL Virginie 00:00:00 V2 F 0 00:00:00 00:00:00 00:00:00 00:00:00 00:00:00 Triathlon M Relais
DNS 3691 DUTERTRE Robin 00:00:00 CA M 0 00:00:00 00:00:00 00:00:00 00:00:00 00:00:00 Triathlon M Relais
DNS 3692 COURBOT Hugo COTE D OPALE TRIATHLON CALAIS SAINT OMER 00:00:00 CA M 0 00:00:00 00:00:00 00:00:00 00:00:00 00:00:00 Triathlon M Relais
DNS 3693 DUTERTRE Hugo COTE D OPALE TRIATHLON CALAIS SAINT OMER 00:00:00 CA M 0 00:00:00 00:00:00 00:00:00 00:00:00 00:00:00 Triathlon M Relais
DNS 3701 CORION Florine 00:00:00 CA F 0 00:00:00 00:00:00 00:00:00 00:00:00 00:00:00 Triathlon M Relais
DNS 3702 BONNIERE Sylvie 00:00:00 V2 F 0 00:00:00 00:00:00 00:00:00 00:00:00 00:00:00 Triathlon M Relais
DNS 3703 CORION Frida 00:00:00 V2 F 0 00:00:00 00:00:00 00:00:00 00:00:00 00:00:00 Triathlon M Relais
DNS 3711 BRAZY Matthieu 00:00:00 SE M 0 00:00:00 00:00:00 00:00:00 00:00:00 00:00:00 Triathlon M Relais
DNS 3712 BRAZY Christophe 00:00:00 V3 M 0 00:00:00 00:00:00 00:00:00 00:00:00 00:00:00 Triathlon M Relais
DNS 3713 LOEZ Florine 00:00:00 SE F 0 00:00:00 00:00:00 00:00:00 00:00:00 00:00:00 Triathlon M Relais
DNS 3721 OBEIN Stephanie TRIATHLON LITTORAL 59 00:00:00 V1 F 0 00:00:00 00:00:00 00:00:00 00:00:00 00:00:00 Triathlon M Relais
DNS 3722 BAREZ Delphine 00:00:00 V1 F 0 00:00:00 00:00:00 00:00:00 00:00:00 00:00:00 Triathlon M Relais
DNS 3723 BIZ Delphine TRIATHLON LITTORAL 59 00:00:00 V1 F 0 00:00:00 00:00:00 00:00:00 00:00:00 00:00:00 Triathlon M Relais
DNS 3731 MOLINARD Mathilde 00:00:00 SE F 0 00:00:00 00:00:00 00:00:00 00:00:00 00:00:00 Triathlon M Relais
DNS 3732 DHIEUX Celine 00:00:00 SE F 0 00:00:00 00:00:00 00:00:00 00:00:00 00:00:00 Triathlon M Relais
DNS 3733 RINGOT Dominique 00:00:00 V1 F 0 00:00:00 00:00:00 00:00:00 00:00:00 00:00:00 Triathlon M Relais
DNS 3741 RINGOT Philippe 00:00:00 V2 M 0 00:00:00 00:00:00 00:00:00 00:00:00 00:00:00 Triathlon M Relais
DNS 3742 ROUSSELLE Pascal 00:00:00 V3 M 0 00:00:00 00:00:00 00:00:00 00:00:00 00:00:00 Triathlon M Relais
DNS 3743 CLAVIEZ Johann 00:00:00 SE M 0 00:00:00 00:00:00 00:00:00 00:00:00 00:00:00 Triathlon M Relais
DNS 3751 CIURLIK Pauline COTE D OPALE TRIATHLON CALAIS SAINT OMER 00:00:00 CA F 0 00:00:00 00:00:00 00:00:00 00:00:00 00:00:00 Triathlon M Relais
DNS 3752 HANQUEZ Emma LYS CALAIS TRIATHLON 00:00:00 CA F 0 00:00:00 00:00:00 00:00:00 00:00:00 00:00:00 Triathlon M Relais
DNS 3753 PAYEN Julie COTE D OPALE TRIATHLON CALAIS SAINT OMER 00:00:00 CA F 0 00:00:00 00:00:00 00:00:00 00:00:00 00:00:00 Triathlon M Relais
DNS 3771 GODIN Céline 00:00:00 SE F 0 00:00:00 00:00:00 00:00:00 00:00:00 00:00:00 Triathlon M Relais
DNS 3772 GODIN Johan 00:00:00 SE M 0 00:00:00 00:00:00 00:00:00 00:00:00 00:00:00 Triathlon M Relais
DNS 3773 DUBREUIL Benjamin 00:00:00 SE M 0 00:00:00 00:00:00 00:00:00 00:00:00 00:00:00 Triathlon M Relais
DNS 3781 JOLY Ines BLANC NEZ TRIATHLON 62 00:00:00 CA F 0 00:00:00 00:00:00 00:00:00 00:00:00 00:00:00 Triathlon M Relais
DNS 3782 COUPIN Eloise BLANC NEZ TRIATHLON 62 00:00:00 CA F 0 00:00:00 00:00:00 00:00:00 00:00:00 00:00:00 Triathlon M Relais
DNS 3783 MARTIN Yannick 00:00:00 SE M 0 00:00:00 00:00:00 00:00:00 00:00:00 00:00:00 Triathlon M Relais
DNS 3791 MARÉCHAL Camille 00:00:00 SE F 0 00:00:00 00:00:00 00:00:00 00:00:00 00:00:00 Triathlon M Relais
DNS 3792 BAILLIEU Christian 00:00:00 V2 M 0 00:00:00 00:00:00 00:00:00 00:00:00 00:00:00 Triathlon M Relais
DNS 3793 MARÉCHAL Camille 00:00:00 SE F 0 00:00:00 00:00:00 00:00:00 00:00:00 00:00:00 Triathlon M Relais
DNS 3861 DUEZ Sébastien 00:00:00 V2 M 0 00:00:00 00:00:00 00:00:00 00:00:00 00:00:00 Triathlon M Relais
DNS 3862 SÉBASTIEN Duez 00:00:00 V2 M 0 00:00:00 00:00:00 00:00:00 00:00:00 00:00:00 Triathlon M Relais
DNS 3863 SÉBASTIEN Duez 00:00:00 V2 M 0 00:00:00 00:00:00 00:00:00 00:00:00 00:00:00 Triathlon M Relais
DNS 3881 MAGES Ludovic GRAVELINES TRIATHLON 00:00:00 V1 M 0 00:00:00 00:00:00 00:00:00 00:00:00 00:00:00 Triathlon M Relais
DNS 3882 DUFLOS Laurent 00:00:00 V3 M 0 00:00:00 00:00:00 00:00:00 00:00:00 00:00:00 Triathlon M Relais
DNS 3883 DUPIC Stéphane 00:00:00 V1 M 0 00:00:00 00:00:00 00:00:00 00:00:00 00:00:00 Triathlon M Relais
DNS 3891 LEFEBVRE Celine 00:00:00 CA F 0 00:00:00 00:00:00 00:00:00 00:00:00 00:00:00 Triathlon M Relais
DNS 3892 BARON Steeve BLANC NEZ TRIATHLON 62 00:00:00 V1 M 0 00:00:00 00:00:00 00:00:00 00:00:00 00:00:00 Triathlon M Relais
DNS 3893 DEFOSSE Remy 00:00:00 CA M 0 00:00:00 00:00:00 00:00:00 00:00:00 00:00:00 Triathlon M Relais
DNS 3901 CAPONE Laura 00:00:00 SE F 0 00:00:00 00:00:00 00:00:00 00:00:00 00:00:00 Triathlon M Relais
DNS 3902 RIVENET Baptiste BLANC NEZ TRIATHLON 62 00:00:00 SE M 0 00:00:00 00:00:00 00:00:00 00:00:00 00:00:00 Triathlon M Relais
DNS 3903 PUJADE Julie 00:00:00 SE F 0 00:00:00 00:00:00 00:00:00 00:00:00 00:00:00 Triathlon M Relais
DNS 3911 DELEURENCE Vianney 00:00:00 SE M 0 00:00:00 00:00:00 00:00:00 00:00:00 00:00:00 Triathlon M Relais
DNS 3912 PLANQUE Didier 00:00:00 SE M 0 00:00:00 00:00:00 00:00:00 00:00:00 00:00:00 Triathlon M Relais
DNS 3913 DELMOTTE Alain charles 00:00:00 SE M 0 00:00:00 00:00:00 00:00:00 00:00:00 00:00:00 Triathlon M Relais
DNS 3931 DEBIÈVE Marco 00:00:00 JU M 0 00:00:00 00:00:00 00:00:00 00:00:00 00:00:00 Triathlon M Relais
DNS 3932 BUTOR Maxime 00:00:00 CA M 0 00:00:00 00:00:00 00:00:00 00:00:00 00:00:00 Triathlon M Relais
DNS 3933 CORNU Hugo 00:00:00 CA M 0 00:00:00 00:00:00 00:00:00 00:00:00 00:00:00 Triathlon M Relais
DNS 3941 EVRARD Théo 00:00:00 JU M 0 00:00:00 00:00:00 00:00:00 00:00:00 00:00:00 Triathlon M Relais
DNS 3942 ALLEXANDRE Antoine 00:00:00 CA M 0 00:00:00 00:00:00 00:00:00 00:00:00 00:00:00 Triathlon M Relais
DNS 3943 GOLLIOT Paul 00:00:00 CA M 0 00:00:00 00:00:00 00:00:00 00:00:00 00:00:00 Triathlon M Relais
DNS 3951 ETCHEPARE Jean-philippe 00:00:00 SE M 0 00:00:00 00:00:00 00:00:00 00:00:00 00:00:00 Triathlon M Relais
DNS 3952 THÉRY Christophe 00:00:00 V3 M 0 00:00:00 00:00:00 00:00:00 00:00:00 00:00:00 Triathlon M Relais
DNS 3953 GIROUD Quentin 00:00:00 CA M 0 00:00:00 00:00:00 00:00:00 00:00:00 00:00:00 Triathlon M Relais
DNS 3961 CADART Aurelie RONCHIN ATHLETIC CLUB 00:00:00 SE F 0 00:00:00 00:00:00 00:00:00 00:00:00 00:00:00 Triathlon M Relais
DNS 3962 MOULIN Alexis RONCHIN ATHLETIC CLUB 00:00:00 SE M 0 00:00:00 00:00:00 00:00:00 00:00:00 00:00:00 Triathlon M Relais
DNS 3963 DYM Monique 00:00:00 V3 F 0 00:00:00 00:00:00 00:00:00 00:00:00 00:00:00 Triathlon M Relais
DNS 3971 JULIEN Nicolas COTE D OPALE TRIATHLON CALAIS SAINT OMER 00:00:00 SE M 0 00:00:00 00:00:00 00:00:00 00:00:00 00:00:00 Triathlon M Relais
DNS 3972 ROBERT Thomas VILLENEUVE D ASCQ TRIATHLON 00:00:00 CA M 0 00:00:00 00:00:00 00:00:00 00:00:00 00:00:00 Triathlon M Relais
DNS 3973 ROBERT Thomas VILLENEUVE D ASCQ TRIATHLON 00:00:00 CA M 0 00:00:00 00:00:00 00:00:00 00:00:00 00:00:00 Triathlon M Relais
DNS 3981 LAZZARI Nicolas TRIATHLON CLUB DE LIEVIN 00:00:00 CA M 0 00:00:00 00:00:00 00:00:00 00:00:00 00:00:00 Triathlon M Relais
DNS 3982 PHILIPPE Paulin TRIATHLON CLUB DE LIEVIN 00:00:00 CA M 0 00:00:00 00:00:00 00:00:00 00:00:00 00:00:00 Triathlon M Relais
DNS 3983 DELEHAYE Antonin TRIATHLON CLUB DE LIEVIN 00:00:00 CA M 0 00:00:00 00:00:00 00:00:00 00:00:00 00:00:00 Triathlon M Relais
DNS 3991 ORGA 11 .. 00:00:00 JU M 0 00:00:00 00:00:00 00:00:00 00:00:00 00:00:00 Triathlon M Relais
DNS 3992 ORGA 12 .. 00:00:00 JU M 0 00:00:00 00:00:00 00:00:00 00:00:00 00:00:00 Triathlon M Relais
DNS 3993 ORGA 13 Orga 00:00:00 JU M 0 00:00:00 00:00:00 00:00:00 00:00:00 00:00:00 Triathlon M Relais
DNS 4001 ORGA 21 .. 00:00:00 JU M 0 00:00:00 00:00:00 00:00:00 00:00:00 00:00:00 Triathlon M Relais
DNS 4002 ORGA 22 .. 00:00:00 JU M 0 00:00:00 00:00:00 00:00:00 00:00:00 00:00:00 Triathlon M Relais
DNS 4003 ORGA 23 .. 00:00:00 JU M 0 00:00:00 00:00:00 00:00:00 00:00:00 00:00:00 Triathlon M Relais